Time,TemperatureF,DewpointF,PressureIn,WindDirection,WindDirectionDegrees,WindSpeedMPH,WindSpeedGustMPH,Humidity,HourlyPrecipIn,Conditions,Clouds,dailyrainin,SoftwareType,DateUTC
2013-10-28 00:00:00,48.8,31.5,29.91,South,188,1.0,3.0,51,0.00,,---,0.00,VWS V14.01,2013-10-28 05:00:00,
2013-10-28 00:01:00,48.8,31.5,29.91,South,188,1.0,2.0,51,0.00,,---,0.00,VWS V14.01,2013-10-28 05:01:00,
2013-10-28 00:02:00,48.8,31.5,29.91,South,188,1.0,2.0,51,0.00,,---,0.00,VWS V14.01,2013-10-28 05:02:00,
2013-10-28 00:03:00,48.6,31.3,29.91,South,190,1.0,2.0,51,0.00,,---,0.00,VWS V14.01,2013-10-28 05:03:00,
2013-10-28 00:10:00,48.3,31.0,29.91,SW,215,2.0,4.0,51,0.00,,---,0.00,VWS V14.01,2013-10-28 05:10:00,
2013-10-28 00:20:00,48.3,31.0,29.90,SSW,202,2.0,5.0,51,0.00,,---,0.00,VWS V14.01,2013-10-28 05:20:00,
2013-10-28 00:30:00,48.2,30.9,29.90,SW,225,2.0,3.0,51,0.00,,---,0.00,VWS V14.01,2013-10-28 05:30:00,
2013-10-28 00:40:00,48.0,30.8,29.90,SSW,202,1.0,3.0,51,0.00,,---,0.00,VWS V14.01,2013-10-28 05:40:00,
2013-10-28 00:50:00,47.9,31.1,29.91,South,180,1.0,3.0,52,0.00,,---,0.00,VWS V14.01,2013-10-28 05:50:00,
2013-10-28 01:00:00,47.7,31.0,29.91,South,180,2.0,3.0,52,0.00,,---,0.00,VWS V14.01,2013-10-28 06:00:00,
2013-10-28 01:10:00,47.6,31.3,29.91,South,180,2.0,4.0,53,0.00,,---,0.00,VWS V14.01,2013-10-28 06:10:00,
2013-10-28 01:20:00,47.1,30.9,29.91,SSE,158,2.0,4.0,53,0.00,,---,0.00,VWS V14.01,2013-10-28 06:20:00,
2013-10-28 01:30:00,47.0,31.2,29.91,South,180,2.0,4.0,54,0.00,,---,0.00,VWS V14.01,2013-10-28 06:30:00,
2013-10-28 01:40:00,46.7,31.0,29.91,South,180,2.0,4.0,54,0.00,,---,0.00,VWS V14.01,2013-10-28 06:40:00,
2013-10-28 01:50:00,46.5,31.2,29.91,South,180,2.0,5.0,55,0.00,,---,0.00,VWS V14.01,2013-10-28 06:50:00,
2013-10-28 02:00:00,46.4,31.1,29.91,South,180,1.0,3.0,55,0.00,,---,0.00,VWS V14.01,2013-10-28 07:00:00,
2013-10-28 02:10:00,46.2,30.9,29.91,South,180,2.0,5.0,55,0.00,,---,0.00,VWS V14.01,2013-10-28 07:10:00,
2013-10-28 02:20:00,46.2,30.9,29.91,South,180,2.0,3.0,55,0.00,,---,0.00,VWS V14.01,2013-10-28 07:20:00,
2013-10-28 02:30:00,46.2,30.9,29.91,SSE,158,2.0,4.0,55,0.00,,---,0.00,VWS V14.01,2013-10-28 07:30:00,
2013-10-28 02:40:00,46.0,31.2,29.91,SSE,158,3.0,4.0,56,0.00,,---,0.00,VWS V14.01,2013-10-28 07:40:00,
2013-10-28 02:50:00,46.1,31.3,29.91,SSE,158,3.0,5.0,56,0.00,,---,0.00,VWS V14.01,2013-10-28 07:50:00,
2013-10-28 03:00:00,46.2,31.4,29.91,SSE,158,3.0,6.0,56,0.00,,---,0.00,VWS V14.01,2013-10-28 08:00:00,
2013-10-28 03:10:00,46.1,31.3,29.91,SSE,158,3.0,5.0,56,0.00,,---,0.00,VWS V14.01,2013-10-28 08:10:00,
2013-10-28 03:20:00,46.0,31.6,29.91,SSE,158,1.0,3.0,57,0.00,,---,0.00,VWS V14.01,2013-10-28 08:20:00,
2013-10-28 03:30:00,46.2,31.8,29.91,SSE,158,1.0,3.0,57,0.00,,---,0.00,VWS V14.01,2013-10-28 08:30:00,
2013-10-28 03:40:00,46.4,32.0,29.91,SSE,158,2.0,4.0,57,0.00,,---,0.00,VWS V14.01,2013-10-28 08:40:00,
2013-10-28 03:50:00,46.2,31.8,29.91,SSE,158,2.0,4.0,57,0.00,,---,0.00,VWS V14.01,2013-10-28 08:50:00,
2013-10-28 04:00:00,46.1,32.2,29.91,South,180,2.0,4.0,58,0.00,,---,0.00,VWS V14.01,2013-10-28 09:00:00,
2013-10-28 04:10:00,45.8,32.3,29.91,SSE,158,3.0,4.0,59,0.00,,---,0.00,VWS V14.01,2013-10-28 09:10:00,
2013-10-28 04:20:00,45.4,32.3,29.92,SSE,158,3.0,5.0,60,0.00,,---,0.00,VWS V14.01,2013-10-28 09:20:00,
2013-10-28 04:30:00,45.2,32.6,29.92,SSE,158,3.0,5.0,61,0.00,,---,0.00,VWS V14.01,2013-10-28 09:30:00,
2013-10-28 04:40:00,45.4,33.2,29.92,SSE,158,3.0,6.0,62,0.00,,---,0.00,VWS V14.01,2013-10-28 09:40:00,
2013-10-28 04:50:00,45.4,33.2,29.93,ESE,112,2.0,4.0,62,0.00,,---,0.00,VWS V14.01,2013-10-28 09:50:00,
2013-10-28 05:00:00,45.8,34.3,29.93,SE,135,3.0,5.0,64,0.00,,---,0.00,VWS V14.01,2013-10-28 10:00:00,
2013-10-28 05:10:00,46.2,34.7,29.93,SE,135,3.0,5.0,64,0.00,,---,0.00,VWS V14.01,2013-10-28 10:10:00,
2013-10-28 05:20:00,46.2,35.1,29.93,ESE,112,3.0,5.0,65,0.00,,---,0.00,VWS V14.01,2013-10-28 10:20:00,
2013-10-28 05:30:00,46.4,35.7,29.93,SE,135,3.0,7.0,66,0.00,,---,0.00,VWS V14.01,2013-10-28 10:30:00,
2013-10-28 05:40:00,46.2,36.2,29.93,ESE,112,3.0,5.0,68,0.00,,---,0.00,VWS V14.01,2013-10-28 10:40:00,
2013-10-28 05:50:00,46.1,36.1,29.93,SE,135,3.0,5.0,68,0.00,,---,0.00,VWS V14.01,2013-10-28 10:50:00,
2013-10-28 06:00:00,46.0,36.8,29.94,ESE,112,2.0,4.0,70,0.00,,---,0.00,VWS V14.01,2013-10-28 11:00:00,
2013-10-28 06:10:00,46.4,37.2,29.94,SE,135,2.0,4.0,70,0.00,,---,0.00,VWS V14.01,2013-10-28 11:10:00,
2013-10-28 06:20:00,46.4,37.5,29.95,SE,135,2.0,3.0,71,0.00,,---,0.00,VWS V14.01,2013-10-28 11:20:00,
2013-10-28 06:30:00,47.0,38.8,29.96,ESE,112,3.0,6.0,73,0.00,,---,0.00,VWS V14.01,2013-10-28 11:30:00,
2013-10-28 06:40:00,47.0,38.8,29.96,SE,144,3.0,3.0,73,0.00,,---,0.00,VWS V14.01,2013-10-28 11:40:00,
2013-10-28 06:41:00,47.0,38.8,29.96,SE,144,3.0,3.0,73,0.00,,---,0.00,VWS V14.01,2013-10-28 11:41:00,
2013-10-28 06:46:00,47.0,38.8,29.96,ESE,118,3.0,7.0,73,0.00,,---,0.00,VWS V14.01,2013-10-28 11:46:00,
2013-10-28 06:51:00,47.1,39.2,29.96,ESE,102,2.0,2.0,74,0.00,,---,0.00,VWS V14.01,2013-10-28 11:51:00,
2013-10-28 06:56:00,47.1,39.2,29.96,SE,143,3.0,5.0,74,0.00,,---,0.00,VWS V14.01,2013-10-28 11:56:00,
2013-10-28 07:01:00,47.0,39.2,29.97,SE,136,1.0,1.0,74,0.00,,---,0.00,VWS V14.01,2013-10-28 12:01:00,
2013-10-28 07:06:00,46.7,39.2,29.97,SE,136,2.0,2.0,75,0.00,,---,0.00,VWS V14.01,2013-10-28 12:06:00,
2013-10-28 07:07:00,46.7,39.2,29.97,SE,136,2.0,2.0,75,0.00,,---,0.00,VWS V14.01,2013-10-28 12:07:00,
2013-10-28 07:11:00,46.8,39.7,29.97,East,98,2.0,2.0,76,0.00,,---,0.00,VWS V14.01,2013-10-28 12:11:00,
2013-10-28 07:12:00,46.8,39.7,29.97,East,98,2.0,2.0,76,0.00,,---,0.00,VWS V14.01,2013-10-28 12:12:00,
2013-10-28 07:16:00,46.8,39.7,29.98,ENE,71,2.0,3.0,76,0.00,,---,0.00,VWS V14.01,2013-10-28 12:16:00,
2013-10-28 07:17:00,46.8,39.7,29.98,ENE,71,2.0,3.0,76,0.00,,---,0.00,VWS V14.01,2013-10-28 12:17:00,
2013-10-28 07:21:00,46.8,39.7,29.98,ENE,71,1.0,3.0,76,0.00,,---,0.00,VWS V14.01,2013-10-28 12:21:00,
2013-10-28 07:22:00,46.8,39.7,29.98,ENE,71,2.0,3.0,76,0.00,,---,0.00,VWS V14.01,2013-10-28 12:22:00,
2013-10-28 07:26:00,47.0,40.2,29.98,ENE,71,2.0,3.0,77,0.00,,---,0.00,VWS V14.01,2013-10-28 12:26:00,
2013-10-28 07:27:00,47.0,40.2,29.98,ENE,71,2.0,3.0,77,0.00,,---,0.00,VWS V14.01,2013-10-28 12:27:00,
2013-10-28 07:31:00,47.1,40.3,29.99,ENE,71,2.0,2.0,77,0.00,,---,0.00,VWS V14.01,2013-10-28 12:31:00,
2013-10-28 07:32:00,47.1,40.3,29.99,ENE,71,3.0,3.0,77,0.00,,---,0.00,VWS V14.01,2013-10-28 12:32:00,
2013-10-28 07:33:00,47.1,40.3,29.99,ENE,71,2.0,3.0,77,0.00,,---,0.00,VWS V14.01,2013-10-28 12:33:00,
2013-10-28 07:36:00,47.0,40.2,29.99,ENE,71,2.0,3.0,77,0.00,,---,0.00,VWS V14.01,2013-10-28 12:36:00,
2013-10-28 07:37:00,46.8,39.7,29.99,ENE,71,2.0,3.0,76,0.00,,---,0.00,VWS V14.01,2013-10-28 12:37:00,
2013-10-28 07:38:00,46.7,39.5,29.99,ENE,71,2.0,3.0,76,0.00,,---,0.00,VWS V14.01,2013-10-28 12:38:00,
2013-10-28 07:41:00,45.5,38.4,29.99,ENE,71,2.0,3.0,76,0.00,,---,0.00,VWS V14.01,2013-10-28 12:41:00,
2013-10-28 07:42:00,45.2,37.8,29.99,ENE,71,1.0,3.0,75,0.00,,---,0.00,VWS V14.01,2013-10-28 12:42:00,
2013-10-28 07:43:00,44.6,37.2,29.99,ENE,71,1.0,3.0,75,0.00,,---,0.00,VWS V14.01,2013-10-28 12:43:00,
2013-10-28 07:46:00,43.5,36.5,29.99,ESE,110,3.0,5.0,76,0.00,,---,0.00,VWS V14.01,2013-10-28 12:46:00,
2013-10-28 07:47:00,43.1,36.1,29.99,ESE,110,2.0,5.0,76,0.00,,---,0.00,VWS V14.01,2013-10-28 12:47:00,
2013-10-28 07:48:00,42.8,35.8,29.99,ESE,106,4.0,5.0,76,0.00,,---,0.00,VWS V14.01,2013-10-28 12:48:00,
2013-10-28 07:51:00,41.9,35.2,29.99,ESE,103,3.0,4.0,77,0.00,,---,0.00,VWS V14.01,2013-10-28 12:51:00,
2013-10-28 07:52:00,41.8,35.5,29.99,East,88,3.0,4.0,78,0.00,,---,0.00,VWS V14.01,2013-10-28 12:52:00,
2013-10-28 07:53:00,41.6,35.6,29.99,East,86,4.0,4.0,79,0.00,,---,0.00,VWS V14.01,2013-10-28 12:53:00,
2013-10-28 07:56:00,41.3,35.3,29.99,East,87,3.0,5.0,79,0.00,,---,0.00,VWS V14.01,2013-10-28 12:56:00,
2013-10-28 07:57:00,41.2,35.2,29.99,East,87,4.0,5.0,79,0.00,,---,0.00,VWS V14.01,2013-10-28 12:57:00,
2013-10-28 07:58:00,41.2,35.5,29.99,ENE,78,4.0,5.0,80,0.00,,---,0.00,VWS V14.01,2013-10-28 12:58:00,
2013-10-28 08:01:00,41.2,35.5,30.00,ENE,74,5.0,5.0,80,0.00,,---,0.00,VWS V14.01,2013-10-28 13:01:00,
2013-10-28 08:02:00,41.2,35.5,30.00,ENE,74,4.0,5.0,80,0.00,,---,0.00,VWS V14.01,2013-10-28 13:02:00,
2013-10-28 08:03:00,41.2,35.8,30.00,ENE,74,4.0,5.0,81,0.00,,---,0.00,VWS V14.01,2013-10-28 13:03:00,
2013-10-28 08:06:00,41.1,35.4,30.00,ENE,67,4.0,5.0,80,0.00,,---,0.00,VWS V14.01,2013-10-28 13:06:00,
2013-10-28 08:07:00,40.9,35.5,30.00,ENE,67,4.0,5.0,81,0.00,,---,0.00,VWS V14.01,2013-10-28 13:07:00,
2013-10-28 08:08:00,40.9,35.5,30.00,ENE,66,3.0,5.0,81,0.00,,---,0.00,VWS V14.01,2013-10-28 13:08:00,
2013-10-28 08:11:00,41.2,36.1,30.00,ENE,61,4.0,4.0,82,0.00,,---,0.00,VWS V14.01,2013-10-28 13:11:00,
2013-10-28 08:12:00,41.2,36.1,30.00,ENE,62,3.0,4.0,82,0.00,,---,0.00,VWS V14.01,2013-10-28 13:12:00,
2013-10-28 08:13:00,41.3,36.2,30.00,ENE,64,4.0,4.0,82,0.00,,---,0.00,VWS V14.01,2013-10-28 13:13:00,
2013-10-28 08:16:00,41.9,37.1,30.01,ENE,65,2.0,4.0,83,0.00,,---,0.00,VWS V14.01,2013-10-28 13:16:00,
2013-10-28 08:17:00,42.1,37.0,30.01,ENE,65,3.0,4.0,82,0.00,,---,0.00,VWS V14.01,2013-10-28 13:17:00,
2013-10-28 08:18:00,42.1,37.0,30.01,ENE,65,3.0,4.0,82,0.00,,---,0.00,VWS V14.01,2013-10-28 13:18:00,
2013-10-28 08:19:00,42.2,37.1,30.01,ENE,65,3.0,4.0,82,0.00,,---,0.00,VWS V14.01,2013-10-28 13:19:00,
2013-10-28 08:21:00,42.3,37.2,30.01,ENE,74,4.0,4.0,82,0.00,,---,0.00,VWS V14.01,2013-10-28 13:21:00,
2013-10-28 08:22:00,42.3,37.2,30.01,ENE,74,3.0,4.0,82,0.00,,---,0.00,VWS V14.01,2013-10-28 13:22:00,
2013-10-28 08:23:00,42.3,37.2,30.01,East,90,3.0,4.0,82,0.00,,---,0.00,VWS V14.01,2013-10-28 13:23:00,
2013-10-28 08:24:00,42.5,37.4,30.01,East,90,3.0,4.0,82,0.00,,---,0.00,VWS V14.01,2013-10-28 13:24:00,
2013-10-28 08:26:00,42.5,37.4,30.01,East,90,3.0,4.0,82,0.00,,---,0.00,VWS V14.01,2013-10-28 13:26:00,
2013-10-28 08:27:00,42.5,37.4,30.01,East,90,5.0,5.0,82,0.00,,---,0.00,VWS V14.01,2013-10-28 13:27:00,
2013-10-28 08:28:00,42.5,37.4,30.01,East,83,4.0,5.0,82,0.00,,---,0.00,VWS V14.01,2013-10-28 13:28:00,
2013-10-28 08:29:00,42.5,37.4,30.01,East,88,3.0,5.0,82,0.00,,---,0.00,VWS V14.01,2013-10-28 13:29:00,
2013-10-28 08:31:00,42.5,37.4,30.02,East,95,3.0,4.0,82,0.00,,---,0.00,VWS V14.01,2013-10-28 13:31:00,
2013-10-28 08:32:00,42.6,37.5,30.02,SE,126,2.0,9.0,82,0.00,,---,0.00,VWS V14.01,2013-10-28 13:32:00,
2013-10-28 08:33:00,42.9,38.4,30.02,East,100,3.0,9.0,84,0.00,,---,0.00,VWS V14.01,2013-10-28 13:33:00,
2013-10-28 08:34:00,43.1,38.3,30.02,SE,140,4.0,9.0,83,0.00,,---,0.00,VWS V14.01,2013-10-28 13:34:00,
2013-10-28 08:36:00,43.2,38.4,30.02,ESE,106,2.0,9.0,83,0.00,,---,0.00,VWS V14.01,2013-10-28 13:36:00,
2013-10-28 08:37:00,43.2,38.4,30.02,ESE,106,2.0,9.0,83,0.00,,---,0.00,VWS V14.01,2013-10-28 13:37:00,
2013-10-28 08:38:00,43.1,38.0,30.02,ESE,106,2.0,9.0,82,0.00,,---,0.00,VWS V14.01,2013-10-28 13:38:00,
2013-10-28 08:39:00,43.1,38.0,30.02,ESE,106,1.0,9.0,82,0.00,,---,0.00,VWS V14.01,2013-10-28 13:39:00,
2013-10-28 08:41:00,43.1,38.0,30.02,SE,146,3.0,4.0,82,0.00,,---,0.00,VWS V14.01,2013-10-28 13:41:00,
2013-10-28 08:42:00,43.2,38.4,30.02,SSE,147,5.0,5.0,83,0.00,,---,0.00,VWS V14.01,2013-10-28 13:42:00,
2013-10-28 08:43:00,43.5,39.0,30.02,SSE,156,4.0,5.0,84,0.00,,---,0.00,VWS V14.01,2013-10-28 13:43:00,
2013-10-28 08:44:00,43.6,39.1,30.02,SSE,163,4.0,7.0,84,0.00,,---,0.00,VWS V14.01,2013-10-28 13:44:00,
2013-10-28 08:45:00,43.9,39.4,30.03,South,182,8.0,8.0,84,0.00,,---,0.00,VWS V14.01,2013-10-28 13:45:00,
2013-10-28 08:46:00,44.3,40.4,30.03,South,172,3.0,8.0,86,0.00,,---,0.00,VWS V14.01,2013-10-28 13:46:00,
2013-10-28 08:47:00,44.8,41.2,30.03,SSE,150,5.0,8.0,87,0.00,,---,0.00,VWS V14.01,2013-10-28 13:47:00,
2013-10-28 08:48:00,45.1,41.5,30.03,SE,140,3.0,8.0,87,0.00,,---,0.00,VWS V14.01,2013-10-28 13:48:00,
2013-10-28 08:49:00,45.1,41.5,30.03,SE,142,2.0,8.0,87,0.00,,---,0.00,VWS V14.01,2013-10-28 13:49:00,
2013-10-28 08:50:00,45.2,41.6,30.03,SE,142,3.0,8.0,87,0.00,,---,0.00,VWS V14.01,2013-10-28 13:50:00,
2013-10-28 08:51:00,45.1,41.5,30.03,SE,141,2.0,3.0,87,0.00,,---,0.00,VWS V14.01,2013-10-28 13:51:00,
2013-10-28 08:52:00,45.1,41.5,30.03,ESE,104,4.0,4.0,87,0.00,,---,0.00,VWS V14.01,2013-10-28 13:52:00,
2013-10-28 08:53:00,45.1,41.5,30.03,ESE,113,2.0,4.0,87,0.00,,---,0.00,VWS V14.01,2013-10-28 13:53:00,
2013-10-28 08:54:00,45.1,41.5,30.03,SSE,151,3.0,4.0,87,0.00,,---,0.00,VWS V14.01,2013-10-28 13:54:00,
2013-10-28 08:55:00,45.2,41.9,30.03,SE,139,3.0,5.0,88,0.00,,---,0.00,VWS V14.01,2013-10-28 13:55:00,
2013-10-28 08:56:00,45.4,42.1,30.03,SE,138,2.0,5.0,88,0.00,,---,0.00,VWS V14.01,2013-10-28 13:56:00,
2013-10-28 08:57:00,45.4,42.1,30.03,ESE,105,3.0,5.0,88,0.00,,---,0.00,VWS V14.01,2013-10-28 13:57:00,
2013-10-28 08:59:00,45.5,42.2,30.03,SE,139,4.0,6.0,88,0.00,,---,0.00,VWS V14.01,2013-10-28 13:59:00,
2013-10-28 09:00:00,45.7,42.7,30.03,SE,137,3.0,6.0,89,0.00,,---,0.00,VWS V14.01,2013-10-28 14:00:00,
2013-10-28 09:01:00,45.8,42.8,30.03,SE,136,4.0,5.0,89,0.00,,---,0.00,VWS V14.01,2013-10-28 14:01:00,
2013-10-28 09:02:00,46.0,43.0,30.03,SSE,147,5.0,5.0,89,0.00,,---,0.00,VWS V14.01,2013-10-28 14:02:00,
2013-10-28 09:04:00,46.1,43.0,30.03,SE,139,6.0,6.0,89,0.00,,---,0.00,VWS V14.01,2013-10-28 14:04:00,
2013-10-28 09:05:00,46.4,43.6,30.03,SE,142,4.0,6.0,90,0.00,,---,0.00,VWS V14.01,2013-10-28 14:05:00,
2013-10-28 09:06:00,46.4,43.6,30.03,SE,142,4.0,6.0,90,0.00,,---,0.00,VWS V14.01,2013-10-28 14:06:00,
2013-10-28 09:07:00,46.5,43.7,30.03,SE,142,6.0,6.0,90,0.00,,---,0.00,VWS V14.01,2013-10-28 14:07:00,
2013-10-28 09:09:00,46.7,43.9,30.03,SE,138,4.0,6.0,90,0.00,,---,0.00,VWS V14.01,2013-10-28 14:09:00,
2013-10-28 09:10:00,46.8,44.0,30.03,ESE,119,3.0,6.0,90,0.00,,---,0.00,VWS V14.01,2013-10-28 14:10:00,
2013-10-28 09:11:00,46.8,44.0,30.03,ESE,123,4.0,4.0,90,0.00,,---,0.00,VWS V14.01,2013-10-28 14:11:00,
2013-10-28 09:12:00,47.0,44.5,30.03,East,93,3.0,5.0,91,0.00,,---,0.00,VWS V14.01,2013-10-28 14:12:00,
2013-10-28 09:13:00,47.0,44.5,30.03,ESE,102,2.0,5.0,91,0.00,,---,0.00,VWS V14.01,2013-10-28 14:13:00,
2013-10-28 09:14:00,47.1,44.6,30.03,ESE,108,3.0,5.0,91,0.00,,---,0.00,VWS V14.01,2013-10-28 14:14:00,
2013-10-28 09:15:00,47.4,44.9,30.03,ESE,119,3.0,5.0,91,0.00,,---,0.00,VWS V14.01,2013-10-28 14:15:00,
2013-10-28 09:16:00,47.4,45.2,30.03,ESE,119,2.0,5.0,92,0.00,,---,0.00,VWS V14.01,2013-10-28 14:16:00,
2013-10-28 09:17:00,47.6,45.4,30.03,ESE,119,3.0,5.0,92,0.00,,---,0.00,VWS V14.01,2013-10-28 14:17:00,
2013-10-28 09:18:00,47.6,45.4,30.03,ESE,119,3.0,5.0,92,0.00,,---,0.00,VWS V14.01,2013-10-28 14:18:00,
2013-10-28 09:19:00,47.7,45.5,30.03,SE,132,6.0,6.0,92,0.00,,---,0.00,VWS V14.01,2013-10-28 14:19:00,
2013-10-28 09:20:00,47.9,45.7,30.03,SE,132,5.0,7.0,92,0.00,,---,0.00,VWS V14.01,2013-10-28 14:20:00,
2013-10-28 09:21:00,47.9,45.7,30.03,SE,142,5.0,5.0,92,0.00,,---,0.00,VWS V14.01,2013-10-28 14:21:00,
2013-10-28 09:22:00,48.0,45.8,30.03,ESE,119,7.0,9.0,92,0.00,,---,0.00,VWS V14.01,2013-10-28 14:22:00,
2013-10-28 09:24:00,48.3,46.4,30.03,SE,131,7.0,10.0,93,0.00,,---,0.00,VWS V14.01,2013-10-28 14:24:00,
2013-10-28 09:26:00,48.5,46.6,30.03,SE,133,6.0,10.0,93,0.00,,---,0.00,VWS V14.01,2013-10-28 14:26:00,
2013-10-28 09:27:00,48.5,46.6,30.03,SE,129,8.0,10.0,93,0.00,,---,0.00,VWS V14.01,2013-10-28 14:27:00,
2013-10-28 09:28:00,48.5,46.6,30.03,SE,140,4.0,10.0,93,0.00,,---,0.00,VWS V14.01,2013-10-28 14:28:00,
2013-10-28 09:29:00,48.6,46.7,30.03,SE,129,5.0,11.0,93,0.00,,---,0.00,VWS V14.01,2013-10-28 14:29:00,
2013-10-28 09:31:00,48.6,46.7,30.04,SE,132,11.0,11.0,93,0.00,,---,0.00,VWS V14.01,2013-10-28 14:31:00,
2013-10-28 09:32:00,48.6,47.0,30.04,ESE,119,7.0,11.0,94,0.00,,---,0.00,VWS V14.01,2013-10-28 14:32:00,
2013-10-28 09:34:00,48.8,47.2,30.04,SE,129,7.0,11.0,94,0.00,,---,0.00,VWS V14.01,2013-10-28 14:34:00,
2013-10-28 09:36:00,48.9,47.2,30.04,SE,142,4.0,11.0,94,0.00,,---,0.00,VWS V14.01,2013-10-28 14:36:00,
2013-10-28 09:37:00,48.9,47.2,30.04,ESE,121,5.0,11.0,94,0.00,,---,0.00,VWS V14.01,2013-10-28 14:37:00,
2013-10-28 09:39:00,49.1,47.7,30.04,ESE,121,4.0,11.0,95,0.00,,---,0.00,VWS V14.01,2013-10-28 14:39:00,
2013-10-28 09:41:00,49.1,47.7,30.04,SE,124,5.0,5.0,95,0.00,,---,0.00,VWS V14.01,2013-10-28 14:41:00,
2013-10-28 09:42:00,49.1,47.7,30.04,SE,135,8.0,9.0,95,0.00,,---,0.00,VWS V14.01,2013-10-28 14:42:00,
2013-10-28 09:43:00,49.2,47.8,30.04,SE,131,7.0,9.0,95,0.00,,---,0.00,VWS V14.01,2013-10-28 14:43:00,
2013-10-28 09:45:00,49.4,48.0,30.04,SE,131,5.0,9.0,95,0.00,,---,0.00,VWS V14.01,2013-10-28 14:45:00,
2013-10-28 09:46:00,49.4,48.0,30.04,SE,145,5.0,9.0,95,0.00,,---,0.00,VWS V14.01,2013-10-28 14:46:00,
2013-10-28 09:47:00,49.5,48.1,30.04,SE,136,5.0,9.0,95,0.00,,---,0.00,VWS V14.01,2013-10-28 14:47:00,
2013-10-28 09:48:00,49.5,48.1,30.04,SE,146,5.0,9.0,95,0.00,,---,0.00,VWS V14.01,2013-10-28 14:48:00,
2013-10-28 09:50:00,49.6,48.2,30.04,SE,146,5.0,9.0,95,0.00,,---,0.00,VWS V14.01,2013-10-28 14:50:00,
2013-10-28 09:51:00,49.6,48.2,30.04,SE,144,7.0,9.0,95,0.00,,---,0.00,VWS V14.01,2013-10-28 14:51:00,
2013-10-28 09:52:00,49.8,48.4,30.04,SE,125,3.0,9.0,95,0.00,,---,0.00,VWS V14.01,2013-10-28 14:52:00,
2013-10-28 09:53:00,49.8,48.4,30.04,SE,130,6.0,9.0,95,0.00,,---,0.00,VWS V14.01,2013-10-28 14:53:00,
2013-10-28 09:55:00,49.9,48.8,30.04,SSE,151,5.0,9.0,96,0.00,,---,0.00,VWS V14.01,2013-10-28 14:55:00,
2013-10-28 09:56:00,50.1,49.0,30.04,SE,137,7.0,11.0,96,0.00,,---,0.00,VWS V14.01,2013-10-28 14:56:00,
2013-10-28 09:57:00,50.2,49.1,30.04,SE,142,12.0,12.0,96,0.00,,---,0.00,VWS V14.01,2013-10-28 14:57:00,
2013-10-28 09:58:00,50.2,49.1,30.04,SE,143,10.0,12.0,96,0.00,,---,0.00,VWS V14.01,2013-10-28 14:58:00,
2013-10-28 10:00:00,50.4,49.3,30.05,SE,135,6.0,12.0,96,0.00,,---,0.00,VWS V14.01,2013-10-28 15:00:00,
2013-10-28 10:01:00,50.4,49.3,30.05,SE,136,7.0,10.0,96,0.00,,---,0.00,VWS V14.01,2013-10-28 15:01:00,
2013-10-28 10:02:00,50.5,49.4,30.05,SSE,162,9.0,12.0,96,0.00,,---,0.00,VWS V14.01,2013-10-28 15:02:00,
2013-10-28 10:03:00,50.5,49.4,30.05,SE,142,10.0,12.0,96,0.00,,---,0.00,VWS V14.01,2013-10-28 15:03:00,
2013-10-28 10:06:00,50.7,49.6,30.05,SSE,153,11.0,12.0,96,0.00,,---,0.00,VWS V14.01,2013-10-28 15:06:00,
2013-10-28 10:07:00,50.8,50.0,30.05,SSE,155,8.0,12.0,97,0.00,,---,0.00,VWS V14.01,2013-10-28 15:07:00,
2013-10-28 10:08:00,50.8,50.0,30.05,SSE,150,8.0,12.0,97,0.00,,---,0.00,VWS V14.01,2013-10-28 15:08:00,
2013-10-28 10:11:00,51.0,50.2,30.05,SSE,153,6.0,7.0,97,0.00,,---,0.00,VWS V14.01,2013-10-28 15:11:00,
2013-10-28 10:12:00,51.0,50.2,30.05,SSE,155,10.0,11.0,97,0.00,,---,0.00,VWS V14.01,2013-10-28 15:12:00,
2013-10-28 10:13:00,51.1,50.3,30.05,SSE,161,6.0,11.0,97,0.00,,---,0.00,VWS V14.01,2013-10-28 15:13:00,
2013-10-28 10:16:00,51.3,50.5,30.05,SE,136,8.0,11.0,97,0.00,,---,0.00,VWS V14.01,2013-10-28 15:16:00,
2013-10-28 10:17:00,51.3,50.5,30.05,SSW,207,5.0,11.0,97,0.00,,---,0.00,VWS V14.01,2013-10-28 15:17:00,
2013-10-28 10:18:00,51.4,50.6,30.05,SE,141,10.0,12.0,97,0.00,,---,0.00,VWS V14.01,2013-10-28 15:18:00,
2013-10-28 10:21:00,51.6,50.8,30.05,SE,136,6.0,6.0,97,0.00,,---,0.00,VWS V14.01,2013-10-28 15:21:00,
2013-10-28 10:22:00,51.6,50.8,30.05,SE,138,10.0,11.0,97,0.00,,---,0.00,VWS V14.01,2013-10-28 15:22:00,
2013-10-28 10:23:00,51.7,50.9,30.05,SE,126,10.0,11.0,97,0.00,,---,0.00,VWS V14.01,2013-10-28 15:23:00,
2013-10-28 10:26:00,51.9,51.1,30.05,SE,140,6.0,11.0,97,0.00,,---,0.00,VWS V14.01,2013-10-28 15:26:00,
2013-10-28 10:27:00,51.9,51.1,30.05,SSE,158,7.0,11.0,97,0.00,,---,0.00,VWS V14.01,2013-10-28 15:27:00,
2013-10-28 10:28:00,51.9,51.1,30.05,SSE,148,7.0,11.0,97,0.00,,---,0.00,VWS V14.01,2013-10-28 15:28:00,
2013-10-28 10:31:00,52.0,51.2,30.05,SSE,154,7.0,10.0,97,0.00,,---,0.00,VWS V14.01,2013-10-28 15:31:00,
2013-10-28 10:32:00,52.0,51.2,30.05,SSE,153,5.0,10.0,97,0.00,,---,0.00,VWS V14.01,2013-10-28 15:32:00,
2013-10-28 10:33:00,52.2,51.4,30.05,SE,146,9.0,11.0,97,0.00,,---,0.00,VWS V14.01,2013-10-28 15:33:00,
2013-10-28 10:36:00,52.3,51.5,30.05,SE,141,9.0,12.0,97,0.00,,---,0.00,VWS V14.01,2013-10-28 15:36:00,
2013-10-28 10:37:00,52.3,51.5,30.05,SE,145,6.0,12.0,97,0.00,,---,0.00,VWS V14.01,2013-10-28 15:37:00,
2013-10-28 10:38:00,52.3,51.5,30.05,SE,146,7.0,12.0,97,0.00,,---,0.00,VWS V14.01,2013-10-28 15:38:00,
2013-10-28 10:41:00,52.5,51.7,30.05,SSE,164,5.0,7.0,97,0.00,,---,0.00,VWS V14.01,2013-10-28 15:41:00,
2013-10-28 10:42:00,52.5,51.7,30.05,SSE,155,7.0,8.0,97,0.00,,---,0.00,VWS V14.01,2013-10-28 15:42:00,
2013-10-28 10:43:00,52.6,51.8,30.05,SSE,163,6.0,8.0,97,0.00,,---,0.00,VWS V14.01,2013-10-28 15:43:00,
2013-10-28 10:47:00,52.9,52.1,30.05,South,177,10.0,11.0,97,0.00,,---,0.00,VWS V14.01,2013-10-28 15:47:00,
2013-10-28 10:48:00,53.1,52.3,30.05,SSE,147,4.0,11.0,97,0.00,,---,0.00,VWS V14.01,2013-10-28 15:48:00,
2013-10-28 10:52:00,53.3,52.5,30.05,SSE,159,6.0,6.0,97,0.00,,---,0.00,VWS V14.01,2013-10-28 15:52:00,
2013-10-28 10:53:00,53.5,52.7,30.05,South,174,2.0,9.0,97,0.00,,---,0.00,VWS V14.01,2013-10-28 15:53:00,
2013-10-28 10:54:00,53.5,52.7,30.05,SSE,163,4.0,9.0,97,0.00,,---,0.00,VWS V14.01,2013-10-28 15:54:00,
2013-10-28 10:57:00,53.6,52.8,30.05,SSE,155,6.0,9.0,97,0.00,,---,0.00,VWS V14.01,2013-10-28 15:57:00,
2013-10-28 10:58:00,53.6,52.8,30.05,SSE,159,5.0,9.0,97,0.00,,---,0.00,VWS V14.01,2013-10-28 15:58:00,
2013-10-28 10:59:00,53.6,52.8,30.05,SSE,158,6.0,9.0,97,0.00,,---,0.00,VWS V14.01,2013-10-28 15:59:00,
2013-10-28 11:02:00,53.8,53.0,30.05,SE,138,6.0,10.0,97,0.00,,---,0.00,VWS V14.01,2013-10-28 16:02:00,
2013-10-28 11:03:00,53.8,53.0,30.05,SE,146,6.0,10.0,97,0.00,,---,0.00,VWS V14.01,2013-10-28 16:03:00,
2013-10-28 11:04:00,53.9,52.8,30.05,SE,141,5.0,10.0,96,0.00,,---,0.00,VWS V14.01,2013-10-28 16:04:00,
2013-10-28 11:07:00,53.9,52.8,30.05,SSE,163,7.0,10.0,96,0.00,,---,0.00,VWS V14.01,2013-10-28 16:07:00,
2013-10-28 11:08:00,54.1,53.0,30.05,SSE,160,6.0,10.0,96,0.00,,---,0.00,VWS V14.01,2013-10-28 16:08:00,
2013-10-28 11:09:00,54.1,53.0,30.05,SSE,156,5.0,10.0,96,0.00,,---,0.00,VWS V14.01,2013-10-28 16:09:00,
2013-10-28 11:12:00,54.4,53.3,30.05,SSE,160,6.0,10.0,96,0.00,,---,0.00,VWS V14.01,2013-10-28 16:12:00,
2013-10-28 11:13:00,54.4,53.0,30.05,SSE,160,4.0,10.0,95,0.00,,---,0.00,VWS V14.01,2013-10-28 16:13:00,
2013-10-28 11:14:00,54.4,53.0,30.05,SE,142,12.0,12.0,95,0.00,,---,0.00,VWS V14.01,2013-10-28 16:14:00,
2013-10-28 11:15:00,54.4,53.0,30.05,SSE,153,13.0,13.0,95,0.00,,---,0.00,VWS V14.01,2013-10-28 16:15:00,
2013-10-28 11:17:00,54.5,53.1,30.05,SSE,159,10.0,14.0,95,0.00,,---,0.00,VWS V14.01,2013-10-28 16:17:00,
2013-10-28 11:18:00,54.5,53.1,30.05,SSE,161,10.0,14.0,95,0.00,,---,0.00,VWS V14.01,2013-10-28 16:18:00,
2013-10-28 11:19:00,54.5,53.1,30.05,South,173,7.0,14.0,95,0.00,,---,0.00,VWS V14.01,2013-10-28 16:19:00,
2013-10-28 11:20:00,54.7,53.3,30.05,SSE,163,9.0,14.0,95,0.00,,---,0.00,VWS V14.01,2013-10-28 16:20:00,
2013-10-28 11:22:00,54.8,53.1,30.05,SSE,164,9.0,12.0,94,0.00,,---,0.00,VWS V14.01,2013-10-28 16:22:00,
2013-10-28 11:23:00,54.8,53.1,30.05,SSE,159,6.0,12.0,94,0.00,,---,0.00,VWS V14.01,2013-10-28 16:23:00,
2013-10-28 11:24:00,55.0,53.3,30.05,SSE,155,7.0,12.0,94,0.00,,---,0.00,VWS V14.01,2013-10-28 16:24:00,
2013-10-28 11:25:00,55.1,53.4,30.05,South,184,3.0,12.0,94,0.00,,---,0.00,VWS V14.01,2013-10-28 16:25:00,
2013-10-28 11:27:00,55.3,53.3,30.05,SSE,156,9.0,12.0,93,0.00,,---,0.00,VWS V14.01,2013-10-28 16:27:00,
2013-10-28 11:28:00,55.3,53.3,30.05,SSE,163,3.0,12.0,93,0.00,,---,0.00,VWS V14.01,2013-10-28 16:28:00,
2013-10-28 11:29:00,55.3,53.3,30.05,SSE,147,6.0,12.0,93,0.00,,---,0.00,VWS V14.01,2013-10-28 16:29:00,
2013-10-28 11:30:00,55.3,53.3,30.05,South,189,5.0,13.0,93,0.00,,---,0.00,VWS V14.01,2013-10-28 16:30:00,
2013-10-28 11:32:00,55.4,53.1,30.05,SE,141,11.0,11.0,92,0.00,,---,0.00,VWS V14.01,2013-10-28 16:32:00,
2013-10-28 11:33:00,55.4,53.1,30.05,SSE,156,7.0,11.0,92,0.00,,---,0.00,VWS V14.01,2013-10-28 16:33:00,
2013-10-28 11:34:00,55.4,53.1,30.05,SSE,167,13.0,16.0,92,0.00,,---,0.00,VWS V14.01,2013-10-28 16:34:00,
2013-10-28 11:35:00,55.6,53.3,30.05,SSE,159,7.0,16.0,92,0.00,,---,0.00,VWS V14.01,2013-10-28 16:35:00,
2013-10-28 11:37:00,55.7,53.1,30.05,SSE,147,12.0,16.0,91,0.00,,---,0.00,VWS V14.01,2013-10-28 16:37:00,
2013-10-28 11:38:00,55.7,53.1,30.05,SSE,147,13.0,16.0,91,0.00,,---,0.00,VWS V14.01,2013-10-28 16:38:00,
2013-10-28 11:39:00,55.7,53.1,30.05,SSE,161,8.0,16.0,91,0.00,,---,0.00,VWS V14.01,2013-10-28 16:39:00,
2013-10-28 11:40:00,55.7,53.1,30.05,SSE,158,5.0,16.0,91,0.00,,---,0.00,VWS V14.01,2013-10-28 16:40:00,
2013-10-28 11:43:00,55.9,53.3,30.05,SSE,152,7.0,10.0,91,0.00,,---,0.00,VWS V14.01,2013-10-28 16:43:00,
2013-10-28 11:44:00,55.9,53.0,30.05,SE,143,11.0,11.0,90,0.00,,---,0.00,VWS V14.01,2013-10-28 16:44:00,
2013-10-28 11:45:00,56.0,53.1,30.05,SE,136,6.0,13.0,90,0.00,,---,0.00,VWS V14.01,2013-10-28 16:45:00,
2013-10-28 11:48:00,56.0,53.1,30.05,SE,139,7.0,13.0,90,0.00,,---,0.00,VWS V14.01,2013-10-28 16:48:00,
2013-10-28 11:49:00,56.2,53.3,30.05,SSE,155,12.0,13.0,90,0.00,,---,0.00,VWS V14.01,2013-10-28 16:49:00,
2013-10-28 11:50:00,56.2,53.3,30.05,SSE,167,11.0,15.0,90,0.00,,---,0.00,VWS V14.01,2013-10-28 16:50:00,
2013-10-28 11:53:00,56.2,53.0,30.05,SE,135,11.0,15.0,89,0.00,,---,0.00,VWS V14.01,2013-10-28 16:53:00,
2013-10-28 11:54:00,56.2,53.0,30.05,SE,136,10.0,15.0,89,0.00,,---,0.00,VWS V14.01,2013-10-28 16:54:00,
2013-10-28 11:55:00,56.3,53.1,30.05,SSE,147,10.0,15.0,89,0.00,,---,0.00,VWS V14.01,2013-10-28 16:55:00,
2013-10-28 11:58:00,56.3,53.1,30.05,SE,144,14.0,15.0,89,0.00,,---,0.00,VWS V14.01,2013-10-28 16:58:00,
2013-10-28 11:59:00,56.3,52.8,30.05,SSE,150,7.0,15.0,88,0.00,,---,0.00,VWS V14.01,2013-10-28 16:59:00,
2013-10-28 12:00:00,56.5,53.0,30.05,SE,142,12.0,15.0,88,0.00,,---,0.00,VWS V14.01,2013-10-28 17:00:00,
2013-10-28 12:03:00,56.5,53.0,30.05,SSE,159,12.0,16.0,88,0.00,,---,0.00,VWS V14.01,2013-10-28 17:03:00,
2013-10-28 12:04:00,56.5,53.0,30.05,SE,142,13.0,16.0,88,0.00,,---,0.00,VWS V14.01,2013-10-28 17:04:00,
2013-10-28 12:06:00,56.5,53.0,30.05,SSE,153,10.0,16.0,88,0.00,,---,0.00,VWS V14.01,2013-10-28 17:06:00,
2013-10-28 12:08:00,56.6,53.1,30.05,SSE,152,13.0,16.0,88,0.00,,---,0.00,VWS V14.01,2013-10-28 17:08:00,
2013-10-28 12:09:00,56.6,53.1,30.05,SSE,166,8.0,16.0,88,0.00,,---,0.00,VWS V14.01,2013-10-28 17:09:00,
2013-10-28 12:11:00,56.6,53.1,30.05,SSE,157,9.0,10.0,88,0.00,,---,0.00,VWS V14.01,2013-10-28 17:11:00,
2013-10-28 12:13:00,56.7,52.9,30.05,SSE,153,8.0,12.0,87,0.00,,---,0.00,VWS V14.01,2013-10-28 17:13:00,
2013-10-28 12:14:00,56.7,52.9,30.05,SE,140,6.0,12.0,87,0.00,,---,0.00,VWS V14.01,2013-10-28 17:14:00,
2013-10-28 12:16:00,56.7,52.9,30.05,SE,144,11.0,12.0,87,0.00,,---,0.00,VWS V14.01,2013-10-28 17:16:00,
2013-10-28 12:18:00,56.7,52.9,30.05,SSE,164,7.0,14.0,87,0.00,,---,0.00,VWS V14.01,2013-10-28 17:18:00,
2013-10-28 12:19:00,56.9,53.1,30.05,SSE,150,10.0,14.0,87,0.00,,---,0.00,VWS V14.01,2013-10-28 17:19:00,
2013-10-28 12:20:00,56.9,53.1,30.05,SSE,152,10.0,14.0,87,0.00,,---,0.00,VWS V14.01,2013-10-28 17:20:00,
2013-10-28 12:21:00,56.9,53.1,30.05,SE,145,13.0,13.0,87,0.00,,---,0.00,VWS V14.01,2013-10-28 17:21:00,
2013-10-28 12:23:00,57.0,52.9,30.05,SSE,153,10.0,15.0,86,0.00,,---,0.00,VWS V14.01,2013-10-28 17:23:00,
2013-10-28 12:24:00,57.0,53.2,30.05,South,173,15.0,16.0,87,0.00,,---,0.00,VWS V14.01,2013-10-28 17:24:00,
2013-10-28 12:25:00,57.0,52.9,30.05,SSE,163,12.0,16.0,86,0.00,,---,0.00,VWS V14.01,2013-10-28 17:25:00,
2013-10-28 12:26:00,57.0,52.9,30.05,SE,136,13.0,16.0,86,0.00,,---,0.00,VWS V14.01,2013-10-28 17:26:00,
2013-10-28 12:28:00,57.0,52.5,30.05,SSE,155,6.0,18.0,85,0.00,,---,0.00,VWS V14.01,2013-10-28 17:28:00,
2013-10-28 12:29:00,57.0,52.9,30.05,SSE,161,6.0,18.0,86,0.00,,---,0.00,VWS V14.01,2013-10-28 17:29:00,
2013-10-28 12:30:00,57.0,52.9,30.05,SE,136,12.0,18.0,86,0.00,,---,0.00,VWS V14.01,2013-10-28 17:30:00,
2013-10-28 12:31:00,57.0,52.9,30.05,SSE,162,7.0,8.0,86,0.00,,---,0.00,VWS V14.01,2013-10-28 17:31:00,
2013-10-28 12:33:00,57.2,53.1,30.05,SE,136,10.0,15.0,86,0.00,,---,0.00,VWS V14.01,2013-10-28 17:33:00,
2013-10-28 12:34:00,57.2,53.1,30.05,SE,140,10.0,15.0,86,0.00,,---,0.00,VWS V14.01,2013-10-28 17:34:00,
2013-10-28 12:35:00,57.2,53.1,30.05,SE,142,16.0,18.0,86,0.00,,---,0.00,VWS V14.01,2013-10-28 17:35:00,
2013-10-28 12:36:00,57.2,52.7,30.05,SSE,155,11.0,19.0,85,0.00,,---,0.00,VWS V14.01,2013-10-28 17:36:00,
2013-10-28 12:38:00,57.2,52.7,30.05,SE,140,14.0,19.0,85,0.00,,---,0.00,VWS V14.01,2013-10-28 17:38:00,
2013-10-28 12:39:00,57.2,52.7,30.05,SE,139,12.0,19.0,85,0.00,,---,0.00,VWS V14.01,2013-10-28 17:39:00,
2013-10-28 12:40:00,57.2,53.1,30.05,SE,134,10.0,19.0,86,0.00,,---,0.00,VWS V14.01,2013-10-28 17:40:00,
2013-10-28 12:41:00,57.3,52.8,30.05,SE,130,12.0,13.0,85,0.00,,---,0.00,VWS V14.01,2013-10-28 17:41:00,
2013-10-28 12:43:00,57.5,53.0,30.05,SE,144,9.0,15.0,85,0.00,,---,0.00,VWS V14.01,2013-10-28 17:43:00,
2013-10-28 12:44:00,57.5,53.0,30.05,SE,146,14.0,17.0,85,0.00,,---,0.00,VWS V14.01,2013-10-28 17:44:00,
2013-10-28 12:45:00,57.5,53.0,30.04,SE,126,8.0,17.0,85,0.00,,---,0.00,VWS V14.01,2013-10-28 17:45:00,
2013-10-28 12:46:00,57.6,53.1,30.04,SE,142,6.0,17.0,85,0.00,,---,0.00,VWS V14.01,2013-10-28 17:46:00,
2013-10-28 12:48:00,57.8,53.0,30.04,SE,136,12.0,17.0,84,0.00,,---,0.00,VWS V14.01,2013-10-28 17:48:00,
2013-10-28 12:49:00,57.8,53.0,30.04,SSE,155,11.0,17.0,84,0.00,,---,0.00,VWS V14.01,2013-10-28 17:49:00,
2013-10-28 12:50:00,57.8,53.0,30.04,SE,134,14.0,17.0,84,0.00,,---,0.00,VWS V14.01,2013-10-28 17:50:00,
2013-10-28 12:51:00,57.8,53.0,30.04,SE,128,12.0,13.0,84,0.00,,---,0.00,VWS V14.01,2013-10-28 17:51:00,
2013-10-28 12:53:00,58.0,53.2,30.04,SE,132,10.0,14.0,84,0.00,,---,0.00,VWS V14.01,2013-10-28 17:53:00,
2013-10-28 12:54:00,58.0,53.2,30.04,SE,141,10.0,16.0,84,0.00,,---,0.00,VWS V14.01,2013-10-28 17:54:00,
2013-10-28 12:55:00,58.0,53.2,30.04,SE,136,13.0,16.0,84,0.00,,---,0.00,VWS V14.01,2013-10-28 17:55:00,
2013-10-28 12:56:00,58.0,53.2,30.04,SE,130,12.0,16.0,84,0.00,,---,0.00,VWS V14.01,2013-10-28 17:56:00,
2013-10-28 12:58:00,58.0,52.9,30.04,SE,131,10.0,16.0,83,0.00,,---,0.00,VWS V14.01,2013-10-28 17:58:00,
2013-10-28 12:59:00,58.0,52.9,30.04,SE,133,11.0,16.0,83,0.00,,---,0.00,VWS V14.01,2013-10-28 17:59:00,
2013-10-28 13:00:00,58.0,52.9,30.04,SE,140,11.0,16.0,83,0.00,,---,0.00,VWS V14.01,2013-10-28 18:00:00,
2013-10-28 13:01:00,58.0,52.9,30.04,SE,143,9.0,15.0,83,0.00,,---,0.00,VWS V14.01,2013-10-28 18:01:00,
2013-10-28 13:04:00,58.1,53.0,30.04,South,177,9.0,15.0,83,0.00,,---,0.00,VWS V14.01,2013-10-28 18:04:00,
2013-10-28 13:05:00,58.1,53.0,30.04,SE,142,14.0,16.0,83,0.00,,---,0.00,VWS V14.01,2013-10-28 18:05:00,
2013-10-28 13:06:00,58.1,53.0,30.04,SE,142,7.0,16.0,83,0.00,,---,0.00,VWS V14.01,2013-10-28 18:06:00,
2013-10-28 13:09:00,58.3,53.2,30.04,SE,135,12.0,16.0,83,0.00,,---,0.00,VWS V14.01,2013-10-28 18:09:00,
2013-10-28 13:10:00,58.3,53.2,30.04,ESE,113,10.0,16.0,83,0.00,,---,0.00,VWS V14.01,2013-10-28 18:10:00,
2013-10-28 13:11:00,58.4,52.9,30.04,SE,136,13.0,15.0,82,0.00,,---,0.00,VWS V14.01,2013-10-28 18:11:00,
2013-10-28 13:14:00,58.4,52.9,30.04,SE,132,15.0,16.0,82,0.00,,---,0.00,VWS V14.01,2013-10-28 18:14:00,
2013-10-28 13:15:00,58.4,52.9,30.03,SE,138,16.0,18.0,82,0.00,,---,0.00,VWS V14.01,2013-10-28 18:15:00,
2013-10-28 13:16:00,58.4,52.9,30.03,SE,146,12.0,18.0,82,0.00,,---,0.00,VWS V14.01,2013-10-28 18:16:00,
2013-10-28 13:19:00,58.6,53.1,30.03,SE,140,16.0,19.0,82,0.00,,---,0.00,VWS V14.01,2013-10-28 18:19:00,
2013-10-28 13:20:00,58.6,52.8,30.03,SE,139,10.0,19.0,81,0.00,,---,0.00,VWS V14.01,2013-10-28 18:20:00,
2013-10-28 13:21:00,58.7,53.2,30.03,SE,124,14.0,14.0,82,0.00,,---,0.00,VWS V14.01,2013-10-28 18:21:00,
2013-10-28 13:24:00,58.9,53.1,30.03,SE,127,10.0,18.0,81,0.00,,---,0.00,VWS V14.01,2013-10-28 18:24:00,
2013-10-28 13:25:00,58.9,53.4,30.03,SSE,148,13.0,18.0,82,0.00,,---,0.00,VWS V14.01,2013-10-28 18:25:00,
2013-10-28 13:26:00,59.0,53.2,30.03,SSE,152,11.0,18.0,81,0.00,,---,0.00,VWS V14.01,2013-10-28 18:26:00,
2013-10-28 13:29:00,59.2,53.4,30.03,SE,140,13.0,18.0,81,0.00,,---,0.00,VWS V14.01,2013-10-28 18:29:00,
2013-10-28 13:30:00,59.2,53.0,30.03,SE,135,13.0,18.0,80,0.00,,---,0.00,VWS V14.01,2013-10-28 18:30:00,
2013-10-28 13:31:00,59.2,53.0,30.03,ESE,121,11.0,14.0,80,0.00,,---,0.00,VWS V14.01,2013-10-28 18:31:00,
2013-10-28 13:34:00,59.3,53.1,30.03,SE,131,6.0,14.0,80,0.00,,---,0.00,VWS V14.01,2013-10-28 18:34:00,
2013-10-28 13:35:00,59.3,53.1,30.03,SE,128,6.0,14.0,80,0.00,,---,0.00,VWS V14.01,2013-10-28 18:35:00,
2013-10-28 13:36:00,59.5,53.3,30.03,SE,140,13.0,14.0,80,0.00,,---,0.00,VWS V14.01,2013-10-28 18:36:00,
2013-10-28 13:37:00,59.5,53.3,30.03,SSE,148,11.0,16.0,80,0.00,,---,0.00,VWS V14.01,2013-10-28 18:37:00,
2013-10-28 13:39:00,59.5,53.3,30.03,SSE,149,6.0,16.0,80,0.00,,---,0.00,VWS V14.01,2013-10-28 18:39:00,
2013-10-28 13:40:00,59.6,53.4,30.03,SE,140,12.0,16.0,80,0.00,,---,0.00,VWS V14.01,2013-10-28 18:40:00,
2013-10-28 13:41:00,59.8,53.6,30.03,SSE,150,12.0,12.0,80,0.00,,---,0.00,VWS V14.01,2013-10-28 18:41:00,
2013-10-28 13:42:00,59.9,53.7,30.03,SE,131,9.0,12.0,80,0.00,,---,0.00,VWS V14.01,2013-10-28 18:42:00,
2013-10-28 13:44:00,59.9,53.4,30.03,SE,138,14.0,18.0,79,0.00,,---,0.00,VWS V14.01,2013-10-28 18:44:00,
2013-10-28 13:45:00,59.9,53.4,30.02,SE,145,12.0,18.0,79,0.00,,---,0.00,VWS V14.01,2013-10-28 18:45:00,
2013-10-28 13:46:00,59.9,53.4,30.02,SE,144,11.0,18.0,79,0.00,,---,0.00,VWS V14.01,2013-10-28 18:46:00,
2013-10-28 13:47:00,59.9,53.4,30.02,ESE,119,10.0,18.0,79,0.00,,---,0.00,VWS V14.01,2013-10-28 18:47:00,
2013-10-28 13:49:00,60.1,53.6,30.02,ESE,121,14.0,18.0,79,0.00,,---,0.00,VWS V14.01,2013-10-28 18:49:00,
2013-10-28 13:51:00,60.2,53.7,30.02,SE,146,7.0,12.0,79,0.00,,---,0.00,VWS V14.01,2013-10-28 18:51:00,
2013-10-28 13:52:00,60.2,53.3,30.02,SSE,149,13.0,18.0,78,0.00,,---,0.00,VWS V14.01,2013-10-28 18:52:00,
2013-10-28 13:54:00,60.2,53.3,30.02,SE,124,10.0,18.0,78,0.00,,---,0.00,VWS V14.01,2013-10-28 18:54:00,
2013-10-28 13:56:00,60.2,53.3,30.02,SE,141,13.0,18.0,78,0.00,,---,0.00,VWS V14.01,2013-10-28 18:56:00,
2013-10-28 13:57:00,60.4,53.5,30.02,SSE,150,9.0,18.0,78,0.00,,---,0.00,VWS V14.01,2013-10-28 18:57:00,
2013-10-28 13:59:00,60.2,53.3,30.02,SE,140,8.0,18.0,78,0.00,,---,0.00,VWS V14.01,2013-10-28 18:59:00,
2013-10-28 14:01:00,60.4,53.5,30.02,SSE,151,12.0,13.0,78,0.00,,---,0.00,VWS V14.01,2013-10-28 19:01:00,
2013-10-28 14:02:00,60.4,53.5,30.02,SE,142,18.0,19.0,78,0.00,,---,0.00,VWS V14.01,2013-10-28 19:02:00,
2013-10-28 14:04:00,60.5,53.6,30.02,SSE,165,12.0,19.0,78,0.00,,---,0.00,VWS V14.01,2013-10-28 19:04:00,
2013-10-28 14:06:00,60.5,53.6,30.02,SE,141,14.0,19.0,78,0.00,,---,0.00,VWS V14.01,2013-10-28 19:06:00,
2013-10-28 14:07:00,60.5,53.6,30.02,SE,146,11.0,19.0,78,0.00,,---,0.00,VWS V14.01,2013-10-28 19:07:00,
2013-10-28 14:09:00,60.7,53.8,30.02,SSE,148,11.0,19.0,78,0.00,,---,0.00,VWS V14.01,2013-10-28 19:09:00,
2013-10-28 14:11:00,60.7,53.8,30.02,SSE,155,11.0,11.0,78,0.00,,---,0.00,VWS V14.01,2013-10-28 19:11:00,
2013-10-28 14:12:00,60.7,53.8,30.02,SSE,166,4.0,11.0,78,0.00,,---,0.00,VWS V14.01,2013-10-28 19:12:00,
2013-10-28 14:14:00,60.7,53.5,30.02,SSE,155,13.0,17.0,77,0.00,,---,0.00,VWS V14.01,2013-10-28 19:14:00,
2013-10-28 14:16:00,60.7,53.5,30.02,SSE,157,7.0,17.0,77,0.00,,---,0.00,VWS V14.01,2013-10-28 19:16:00,
2013-10-28 14:17:00,60.7,53.5,30.02,SSE,167,8.0,17.0,77,0.00,,---,0.00,VWS V14.01,2013-10-28 19:17:00,
2013-10-28 14:19:00,60.5,53.6,30.02,South,178,9.0,17.0,78,0.00,,---,0.00,VWS V14.01,2013-10-28 19:19:00,
2013-10-28 14:21:00,60.4,53.5,30.02,SSE,161,6.0,10.0,78,0.00,,---,0.00,VWS V14.01,2013-10-28 19:21:00,
2013-10-28 14:22:00,60.4,53.5,30.02,SSE,158,9.0,10.0,78,0.00,,---,0.00,VWS V14.01,2013-10-28 19:22:00,
2013-10-28 14:24:00,60.5,53.6,30.02,South,186,15.0,15.0,78,0.00,,---,0.00,VWS V14.01,2013-10-28 19:24:00,
2013-10-28 14:26:00,60.5,53.6,30.02,South,169,8.0,15.0,78,0.00,,---,0.00,VWS V14.01,2013-10-28 19:26:00,
2013-10-28 14:27:00,60.5,53.6,30.02,South,181,9.0,15.0,78,0.00,,---,0.00,VWS V14.01,2013-10-28 19:27:00,
2013-10-28 14:29:00,60.5,53.6,30.02,SSE,158,10.0,15.0,78,0.00,,---,0.00,VWS V14.01,2013-10-28 19:29:00,
2013-10-28 14:31:00,60.5,53.6,30.01,SSE,159,10.0,13.0,78,0.00,,---,0.00,VWS V14.01,2013-10-28 19:31:00,
2013-10-28 14:32:00,60.5,53.6,30.01,SSE,155,10.0,13.0,78,0.00,,---,0.00,VWS V14.01,2013-10-28 19:32:00,
2013-10-28 14:34:00,60.5,53.6,30.01,SE,129,10.0,15.0,78,0.00,,---,0.00,VWS V14.01,2013-10-28 19:34:00,
2013-10-28 14:36:00,60.5,53.6,30.01,South,189,3.0,15.0,78,0.00,,---,0.00,VWS V14.01,2013-10-28 19:36:00,
2013-10-28 14:37:00,60.5,53.6,30.01,SSE,162,4.0,15.0,78,0.00,,---,0.00,VWS V14.01,2013-10-28 19:37:00,
2013-10-28 14:38:00,60.5,53.6,30.01,South,180,4.0,15.0,78,0.00,,---,0.00,VWS V14.01,2013-10-28 19:38:00,
2013-10-28 14:39:00,60.5,53.6,30.01,SSE,148,7.0,15.0,78,0.00,,---,0.00,VWS V14.01,2013-10-28 19:39:00,
2013-10-28 14:41:00,60.5,53.6,30.01,South,178,7.0,17.0,78,0.00,,---,0.00,VWS V14.01,2013-10-28 19:41:00,
2013-10-28 14:42:00,60.5,53.6,30.01,SSE,153,11.0,17.0,78,0.00,,---,0.00,VWS V14.01,2013-10-28 19:42:00,
2013-10-28 14:43:00,60.5,53.6,30.01,SSE,149,15.0,17.0,78,0.00,,---,0.00,VWS V14.01,2013-10-28 19:43:00,
2013-10-28 14:44:00,60.4,53.5,30.01,SSE,149,16.0,17.0,78,0.00,,---,0.00,VWS V14.01,2013-10-28 19:44:00,
2013-10-28 14:46:00,60.4,53.5,30.01,South,190,7.0,17.0,78,0.00,,---,0.00,VWS V14.01,2013-10-28 19:46:00,
2013-10-28 14:47:00,60.4,53.5,30.01,SSE,156,6.0,17.0,78,0.00,,---,0.00,VWS V14.01,2013-10-28 19:47:00,
2013-10-28 14:48:00,60.4,53.5,30.01,SSE,153,16.0,17.0,78,0.00,,---,0.00,VWS V14.01,2013-10-28 19:48:00,
2013-10-28 14:49:00,60.2,53.3,30.01,SSE,154,13.0,17.0,78,0.00,,---,0.00,VWS V14.01,2013-10-28 19:49:00,
2013-10-28 14:52:00,60.1,53.6,30.01,SE,134,12.0,18.0,79,0.00,,---,0.00,VWS V14.01,2013-10-28 19:52:00,
2013-10-28 14:53:00,60.1,53.6,30.01,SE,138,15.0,18.0,79,0.00,,---,0.00,VWS V14.01,2013-10-28 19:53:00,
2013-10-28 14:54:00,60.1,53.6,30.01,SSE,165,8.0,18.0,79,0.00,,---,0.00,VWS V14.01,2013-10-28 19:54:00,
2013-10-28 14:57:00,59.9,53.4,30.01,SSE,160,11.0,18.0,79,0.00,,---,0.00,VWS V14.01,2013-10-28 19:57:00,
2013-10-28 14:58:00,59.9,53.4,30.01,SSE,167,7.0,18.0,79,0.00,,---,0.00,VWS V14.01,2013-10-28 19:58:00,
2013-10-28 14:59:00,59.9,53.4,30.01,SSE,151,10.0,18.0,79,0.00,,---,0.00,VWS V14.01,2013-10-28 19:59:00,
2013-10-28 15:02:00,60.1,53.9,30.01,SSE,162,10.0,14.0,80,0.00,,---,0.00,VWS V14.01,2013-10-28 20:02:00,
2013-10-28 15:03:00,59.9,53.7,30.01,SSE,167,11.0,15.0,80,0.00,,---,0.00,VWS V14.01,2013-10-28 20:03:00,
2013-10-28 15:04:00,60.1,53.9,30.01,South,169,7.0,15.0,80,0.00,,---,0.00,VWS V14.01,2013-10-28 20:04:00,
2013-10-28 15:07:00,60.1,53.9,30.01,ESE,119,14.0,16.0,80,0.00,,---,0.00,VWS V14.01,2013-10-28 20:07:00,
2013-10-28 15:08:00,60.1,53.9,30.01,SSE,162,13.0,21.0,80,0.00,,---,0.00,VWS V14.01,2013-10-28 20:08:00,
2013-10-28 15:09:00,60.1,53.9,30.01,SSE,159,12.0,21.0,80,0.00,,---,0.00,VWS V14.01,2013-10-28 20:09:00,
2013-10-28 15:12:00,60.1,53.9,30.01,SE,142,18.0,18.0,80,0.00,,---,0.00,VWS V14.01,2013-10-28 20:12:00,
2013-10-28 15:13:00,60.1,53.6,30.01,SSE,148,14.0,18.0,79,0.00,,---,0.00,VWS V14.01,2013-10-28 20:13:00,
2013-10-28 15:14:00,60.1,53.6,30.01,SE,146,12.0,18.0,79,0.00,,---,0.00,VWS V14.01,2013-10-28 20:14:00,
2013-10-28 15:17:00,60.2,53.7,30.00,SSE,150,14.0,18.0,79,0.00,,---,0.00,VWS V14.01,2013-10-28 20:17:00,
2013-10-28 15:18:00,60.2,53.7,30.00,SE,146,17.0,18.0,79,0.00,,---,0.00,VWS V14.01,2013-10-28 20:18:00,
2013-10-28 15:19:00,60.2,53.7,30.00,SSE,155,10.0,18.0,79,0.00,,---,0.00,VWS V14.01,2013-10-28 20:19:00,
2013-10-28 15:22:00,60.4,53.9,30.00,SE,145,11.0,14.0,79,0.00,,---,0.00,VWS V14.01,2013-10-28 20:22:00,
2013-10-28 15:23:00,60.4,53.9,30.00,SE,140,7.0,14.0,79,0.00,,---,0.00,VWS V14.01,2013-10-28 20:23:00,
2013-10-28 15:24:00,60.5,54.0,30.00,SSE,153,9.0,14.0,79,0.00,,---,0.00,VWS V14.01,2013-10-28 20:24:00,
2013-10-28 15:27:00,60.7,54.2,30.00,SSW,211,6.0,14.0,79,0.00,,---,0.00,VWS V14.01,2013-10-28 20:27:00,
2013-10-28 15:28:00,60.7,53.8,30.00,SSE,164,11.0,19.0,78,0.00,,---,0.00,VWS V14.01,2013-10-28 20:28:00,
2013-10-28 15:29:00,60.7,53.8,30.00,SSE,159,7.0,19.0,78,0.00,,---,0.00,VWS V14.01,2013-10-28 20:29:00,
2013-10-28 15:32:00,60.7,53.8,30.00,SE,136,13.0,16.0,78,0.00,,---,0.00,VWS V14.01,2013-10-28 20:32:00,
2013-10-28 15:33:00,60.7,53.8,30.00,SE,143,15.0,16.0,78,0.00,,---,0.00,VWS V14.01,2013-10-28 20:33:00,
2013-10-28 15:34:00,60.7,53.8,30.00,SE,131,13.0,16.0,78,0.00,,---,0.00,VWS V14.01,2013-10-28 20:34:00,
2013-10-28 15:38:00,60.9,54.0,30.00,South,178,13.0,16.0,78,0.00,,---,0.00,VWS V14.01,2013-10-28 20:38:00,
2013-10-28 15:39:00,60.9,54.0,30.00,South,175,4.0,16.0,78,0.00,,---,0.00,VWS V14.01,2013-10-28 20:39:00,
2013-10-28 15:43:00,60.9,53.7,30.00,SSE,159,7.0,13.0,77,0.00,,---,0.00,VWS V14.01,2013-10-28 20:43:00,
2013-10-28 15:44:00,60.9,54.0,30.00,SSE,156,5.0,13.0,78,0.00,,---,0.00,VWS V14.01,2013-10-28 20:44:00,
2013-10-28 15:48:00,61.0,54.1,30.00,SSE,150,12.0,14.0,78,0.00,,---,0.00,VWS V14.01,2013-10-28 20:48:00,
2013-10-28 15:49:00,61.0,54.1,30.00,SE,146,11.0,14.0,78,0.00,,---,0.00,VWS V14.01,2013-10-28 20:49:00,
2013-10-28 15:50:00,61.0,54.1,30.00,SE,140,16.0,16.0,78,0.00,,---,0.00,VWS V14.01,2013-10-28 20:50:00,
2013-10-28 15:53:00,61.2,53.9,30.00,SSE,150,12.0,17.0,77,0.00,,---,0.00,VWS V14.01,2013-10-28 20:53:00,
2013-10-28 15:54:00,61.0,53.8,30.00,SE,144,16.0,17.0,77,0.00,,---,0.00,VWS V14.01,2013-10-28 20:54:00,
2013-10-28 15:55:00,61.0,53.8,30.00,SE,143,14.0,17.0,77,0.00,,---,0.00,VWS V14.01,2013-10-28 20:55:00,
2013-10-28 15:58:00,61.2,53.9,30.00,SSE,150,12.0,17.0,77,0.00,,---,0.00,VWS V14.01,2013-10-28 20:58:00,
2013-10-28 15:59:00,61.2,53.9,30.00,SSE,161,12.0,17.0,77,0.00,,---,0.00,VWS V14.01,2013-10-28 20:59:00,
2013-10-28 16:00:00,61.2,53.9,29.99,SSE,163,12.0,17.0,77,0.00,,---,0.00,VWS V14.01,2013-10-28 21:00:00,
2013-10-28 16:03:00,61.2,53.9,29.99,SSE,163,16.0,18.0,77,0.00,,---,0.00,VWS V14.01,2013-10-28 21:03:00,
2013-10-28 16:04:00,61.2,53.6,29.99,South,171,6.0,18.0,76,0.00,,---,0.00,VWS V14.01,2013-10-28 21:04:00,
2013-10-28 16:05:00,61.2,53.6,29.99,SSE,154,10.0,18.0,76,0.00,,---,0.00,VWS V14.01,2013-10-28 21:05:00,
2013-10-28 16:08:00,61.2,53.9,29.99,SSE,148,16.0,19.0,77,0.00,,---,0.00,VWS V14.01,2013-10-28 21:08:00,
2013-10-28 16:09:00,61.2,53.6,29.99,SE,142,14.0,19.0,76,0.00,,---,0.00,VWS V14.01,2013-10-28 21:09:00,
2013-10-28 16:10:00,61.2,53.6,29.99,SSE,152,10.0,19.0,76,0.00,,---,0.00,VWS V14.01,2013-10-28 21:10:00,
2013-10-28 16:13:00,61.2,53.9,29.99,SE,132,15.0,15.0,77,0.00,,---,0.00,VWS V14.01,2013-10-28 21:13:00,
2013-10-28 16:14:00,61.2,53.9,29.99,SSE,152,14.0,16.0,77,0.00,,---,0.00,VWS V14.01,2013-10-28 21:14:00,
2013-10-28 16:15:00,61.3,53.7,29.99,SE,127,16.0,16.0,76,0.00,,---,0.00,VWS V14.01,2013-10-28 21:15:00,
2013-10-28 16:18:00,61.3,53.7,29.99,SSE,153,17.0,20.0,76,0.00,,---,0.00,VWS V14.01,2013-10-28 21:18:00,
2013-10-28 16:19:00,61.3,53.7,29.99,SSE,147,19.0,21.0,76,0.00,,---,0.00,VWS V14.01,2013-10-28 21:19:00,
2013-10-28 16:20:00,61.3,53.7,29.99,SE,129,11.0,21.0,76,0.00,,---,0.00,VWS V14.01,2013-10-28 21:20:00,
2013-10-28 16:24:00,61.5,53.9,29.99,ESE,120,11.0,18.0,76,0.00,,---,0.00,VWS V14.01,2013-10-28 21:24:00,
2013-10-28 16:25:00,61.6,54.0,29.99,SSE,157,14.0,18.0,76,0.00,,---,0.00,VWS V14.01,2013-10-28 21:25:00,
2013-10-28 16:29:00,61.5,53.5,29.99,SE,131,15.0,20.0,75,0.00,,---,0.00,VWS V14.01,2013-10-28 21:29:00,
2013-10-28 16:30:00,61.3,53.3,29.99,ESE,122,14.0,20.0,75,0.00,,---,0.00,VWS V14.01,2013-10-28 21:30:00,
2013-10-28 16:34:00,61.2,53.2,29.99,East,84,7.0,19.0,75,0.00,,---,0.00,VWS V14.01,2013-10-28 21:34:00,
2013-10-28 16:35:00,61.2,53.6,29.99,SE,133,18.0,21.0,76,0.00,,---,0.00,VWS V14.01,2013-10-28 21:35:00,
2013-10-28 16:39:00,61.0,53.4,29.99,SE,128,9.0,21.0,76,0.00,,---,0.00,VWS V14.01,2013-10-28 21:39:00,
2013-10-28 16:40:00,61.0,53.4,29.99,SE,130,16.0,21.0,76,0.00,,---,0.00,VWS V14.01,2013-10-28 21:40:00,
2013-10-28 16:44:00,61.0,53.4,29.99,ESE,103,13.0,19.0,76,0.00,,---,0.00,VWS V14.01,2013-10-28 21:44:00,
2013-10-28 16:45:00,61.0,53.4,29.99,ESE,121,18.0,19.0,76,0.00,,---,0.00,VWS V14.01,2013-10-28 21:45:00,
2013-10-28 16:49:00,61.0,53.4,29.99,SE,141,10.0,19.0,76,0.00,,---,0.00,VWS V14.01,2013-10-28 21:49:00,
2013-10-28 16:50:00,61.0,53.4,29.99,East,91,9.0,19.0,76,0.00,,---,0.00,VWS V14.01,2013-10-28 21:50:00,
2013-10-28 16:51:00,61.0,53.4,29.99,East,98,14.0,16.0,76,0.00,,---,0.00,VWS V14.01,2013-10-28 21:51:00,
2013-10-28 16:54:00,60.9,53.3,29.99,SE,132,13.0,17.0,76,0.00,,---,0.00,VWS V14.01,2013-10-28 21:54:00,
2013-10-28 16:55:00,60.9,53.3,29.99,SE,134,13.0,17.0,76,0.00,,---,0.00,VWS V14.01,2013-10-28 21:55:00,
2013-10-28 16:56:00,60.9,53.3,29.99,SE,140,16.0,17.0,76,0.00,,---,0.00,VWS V14.01,2013-10-28 21:56:00,
2013-10-28 16:59:00,60.9,53.3,29.99,SE,146,12.0,21.0,76,0.00,,---,0.00,VWS V14.01,2013-10-28 21:59:00,
2013-10-28 17:00:00,60.9,53.3,29.99,ESE,113,14.0,21.0,76,0.00,,---,0.00,VWS V14.01,2013-10-28 22:00:00,
2013-10-28 17:01:00,60.9,53.3,29.99,SE,128,17.0,21.0,76,0.00,,---,0.00,VWS V14.01,2013-10-28 22:01:00,
2013-10-28 17:04:00,60.7,53.1,29.99,SE,126,14.0,20.0,76,0.00,,---,0.00,VWS V14.01,2013-10-28 22:04:00,
2013-10-28 17:05:00,60.7,53.1,29.99,ESE,123,9.0,20.0,76,0.00,,---,0.00,VWS V14.01,2013-10-28 22:05:00,
2013-10-28 17:06:00,60.5,52.9,29.99,SE,130,14.0,20.0,76,0.00,,---,0.00,VWS V14.01,2013-10-28 22:06:00,
2013-10-28 17:09:00,60.5,53.3,29.99,ESE,108,17.0,20.0,77,0.00,,---,0.00,VWS V14.01,2013-10-28 22:09:00,
2013-10-28 17:10:00,60.4,53.2,29.99,SE,130,15.0,20.0,77,0.00,,---,0.00,VWS V14.01,2013-10-28 22:10:00,
2013-10-28 17:11:00,60.4,53.2,29.99,ESE,123,14.0,15.0,77,0.00,,---,0.00,VWS V14.01,2013-10-28 22:11:00,
2013-10-28 17:14:00,60.4,53.2,29.99,ESE,123,13.0,17.0,77,0.00,,---,0.00,VWS V14.01,2013-10-28 22:14:00,
2013-10-28 17:15:00,60.4,53.2,29.99,SE,136,17.0,17.0,77,0.00,,---,0.00,VWS V14.01,2013-10-28 22:15:00,
2013-10-28 17:16:00,60.2,53.0,29.99,ESE,108,19.0,19.0,77,0.00,,---,0.00,VWS V14.01,2013-10-28 22:16:00,
2013-10-28 17:19:00,60.1,53.2,29.99,ENE,67,6.0,19.0,78,0.00,,---,0.00,VWS V14.01,2013-10-28 22:19:00,
2013-10-28 17:20:00,60.1,53.2,29.99,ESE,107,14.0,19.0,78,0.00,,---,0.00,VWS V14.01,2013-10-28 22:20:00,
2013-10-28 17:21:00,60.1,53.6,29.99,SE,140,9.0,14.0,79,0.00,,---,0.00,VWS V14.01,2013-10-28 22:21:00,
2013-10-28 17:24:00,59.9,53.0,29.99,SE,143,12.0,18.0,78,0.00,,---,0.00,VWS V14.01,2013-10-28 22:24:00,
2013-10-28 17:25:00,59.9,53.0,29.99,SE,126,11.0,18.0,78,0.00,,---,0.00,VWS V14.01,2013-10-28 22:25:00,
2013-10-28 17:26:00,59.9,53.4,29.99,SE,128,16.0,20.0,79,0.00,,---,0.00,VWS V14.01,2013-10-28 22:26:00,
2013-10-28 17:29:00,59.8,52.9,29.99,SE,143,15.0,21.0,78,0.00,,---,0.00,VWS V14.01,2013-10-28 22:29:00,
2013-10-28 17:30:00,59.8,52.9,30.00,SE,130,14.0,21.0,78,0.00,,---,0.00,VWS V14.01,2013-10-28 22:30:00,
2013-10-28 17:31:00,59.8,53.3,30.00,ESE,119,14.0,16.0,79,0.00,,---,0.00,VWS V14.01,2013-10-28 22:31:00,
2013-10-28 17:34:00,59.8,53.3,30.00,SE,128,15.0,20.0,79,0.00,,---,0.00,VWS V14.01,2013-10-28 22:34:00,
2013-10-28 17:35:00,59.8,53.3,30.00,SE,130,10.0,20.0,79,0.00,,---,0.00,VWS V14.01,2013-10-28 22:35:00,
2013-10-28 17:36:00,59.8,53.3,30.00,SE,146,12.0,20.0,79,0.00,,---,0.00,VWS V14.01,2013-10-28 22:36:00,
2013-10-28 17:37:00,59.8,53.3,30.00,SE,144,13.0,20.0,79,0.00,,---,0.00,VWS V14.01,2013-10-28 22:37:00,
2013-10-28 17:40:00,59.8,53.3,30.00,SE,124,10.0,20.0,79,0.00,,---,0.00,VWS V14.01,2013-10-28 22:40:00,
2013-10-28 17:41:00,59.8,53.3,30.00,SE,136,14.0,14.0,79,0.00,,---,0.00,VWS V14.01,2013-10-28 22:41:00,
2013-10-28 17:42:00,59.8,53.3,30.00,SE,146,14.0,16.0,79,0.00,,---,0.00,VWS V14.01,2013-10-28 22:42:00,
2013-10-28 17:45:00,59.6,53.1,30.01,SE,134,14.0,16.0,79,0.00,,---,0.00,VWS V14.01,2013-10-28 22:45:00,
2013-10-28 17:46:00,59.6,53.1,30.01,SE,132,14.0,18.0,79,0.00,,---,0.00,VWS V14.01,2013-10-28 22:46:00,
2013-10-28 17:47:00,59.6,53.1,30.01,SE,146,12.0,18.0,79,0.00,,---,0.00,VWS V14.01,2013-10-28 22:47:00,
2013-10-28 17:50:00,59.5,53.0,30.01,SE,146,13.0,18.0,79,0.00,,---,0.00,VWS V14.01,2013-10-28 22:50:00,
2013-10-28 17:51:00,59.5,53.0,30.01,SE,146,9.0,15.0,79,0.00,,---,0.00,VWS V14.01,2013-10-28 22:51:00,
2013-10-28 17:52:00,59.5,53.0,30.01,SE,132,10.0,15.0,79,0.00,,---,0.00,VWS V14.01,2013-10-28 22:52:00,
2013-10-28 17:55:00,59.5,53.0,30.01,SE,135,11.0,18.0,79,0.00,,---,0.00,VWS V14.01,2013-10-28 22:55:00,
2013-10-28 17:57:00,59.3,52.8,30.01,SE,137,12.0,18.0,79,0.00,,---,0.00,VWS V14.01,2013-10-28 22:57:00,
2013-10-28 18:00:00,59.3,52.8,30.01,SE,126,10.0,18.0,79,0.00,,---,0.00,VWS V14.01,2013-10-28 23:00:00,
2013-10-28 18:01:00,59.3,52.8,30.01,SE,136,6.0,18.0,79,0.00,,---,0.00,VWS V14.01,2013-10-28 23:01:00,
2013-10-28 18:02:00,59.3,52.8,30.01,SE,138,12.0,12.0,79,0.00,,---,0.00,VWS V14.01,2013-10-28 23:02:00,
2013-10-28 18:05:00,59.2,53.0,30.01,SSE,148,13.0,16.0,80,0.00,,---,0.00,VWS V14.01,2013-10-28 23:05:00,
2013-10-28 18:07:00,59.2,53.0,30.01,ESE,123,13.0,16.0,80,0.00,,---,0.00,VWS V14.01,2013-10-28 23:07:00,
2013-10-28 18:10:00,59.2,53.0,30.01,SE,132,13.0,16.0,80,0.00,,---,0.00,VWS V14.01,2013-10-28 23:10:00,
2013-10-28 18:12:00,59.2,53.0,30.01,ESE,121,10.0,14.0,80,0.00,,---,0.00,VWS V14.01,2013-10-28 23:12:00,
2013-10-28 18:13:00,59.2,53.0,30.01,ESE,123,12.0,14.0,80,0.00,,---,0.00,VWS V14.01,2013-10-28 23:13:00,
2013-10-28 18:15:00,59.2,53.0,30.01,ESE,111,9.0,14.0,80,0.00,,---,0.00,VWS V14.01,2013-10-28 23:15:00,
2013-10-28 18:16:00,59.0,52.8,30.01,ESE,115,8.0,14.0,80,0.00,,---,0.00,VWS V14.01,2013-10-28 23:16:00,
2013-10-28 18:17:00,59.0,52.8,30.01,SE,131,11.0,14.0,80,0.00,,---,0.00,VWS V14.01,2013-10-28 23:17:00,
2013-10-28 18:18:00,59.0,52.8,30.01,SE,139,11.0,15.0,80,0.00,,---,0.00,VWS V14.01,2013-10-28 23:18:00,
2013-10-28 18:20:00,59.0,52.8,30.01,SE,139,12.0,15.0,80,0.00,,---,0.00,VWS V14.01,2013-10-28 23:20:00,
2013-10-28 18:21:00,59.0,52.8,30.01,SSE,148,9.0,10.0,80,0.00,,---,0.00,VWS V14.01,2013-10-28 23:21:00,
2013-10-28 18:22:00,59.0,52.8,30.01,SE,129,9.0,13.0,80,0.00,,---,0.00,VWS V14.01,2013-10-28 23:22:00,
2013-10-28 18:23:00,58.9,52.8,30.01,SE,125,11.0,13.0,80,0.00,,---,0.00,VWS V14.01,2013-10-28 23:23:00,
2013-10-28 18:25:00,58.9,52.8,30.01,ESE,109,11.0,13.0,80,0.00,,---,0.00,VWS V14.01,2013-10-28 23:25:00,
2013-10-28 18:26:00,58.9,52.8,30.01,SE,133,11.0,13.0,80,0.00,,---,0.00,VWS V14.01,2013-10-28 23:26:00,
2013-10-28 18:27:00,58.7,52.9,30.01,ESE,122,5.0,13.0,81,0.00,,---,0.00,VWS V14.01,2013-10-28 23:27:00,
2013-10-28 18:28:00,58.7,52.9,30.01,SSE,151,13.0,13.0,81,0.00,,---,0.00,VWS V14.01,2013-10-28 23:28:00,
2013-10-28 18:30:00,58.7,52.9,30.02,SE,137,10.0,14.0,81,0.00,,---,0.00,VWS V14.01,2013-10-28 23:30:00,
2013-10-28 18:31:00,58.6,52.8,30.02,ESE,119,10.0,10.0,81,0.00,,---,0.00,VWS V14.01,2013-10-28 23:31:00,
2013-10-28 18:32:00,58.6,52.8,30.02,SE,130,9.0,12.0,81,0.00,,---,0.00,VWS V14.01,2013-10-28 23:32:00,
2013-10-28 18:33:00,58.6,52.8,30.02,ESE,113,10.0,14.0,81,0.00,,---,0.00,VWS V14.01,2013-10-28 23:33:00,
2013-10-28 18:35:00,58.4,52.9,30.02,ESE,115,12.0,14.0,82,0.00,,---,0.00,VWS V14.01,2013-10-28 23:35:00,
2013-10-28 18:36:00,58.4,52.9,30.02,ESE,121,9.0,14.0,82,0.00,,---,0.00,VWS V14.01,2013-10-28 23:36:00,
2013-10-28 18:37:00,58.4,52.9,30.02,SE,124,11.0,14.0,82,0.00,,---,0.00,VWS V14.01,2013-10-28 23:37:00,
2013-10-28 18:38:00,58.4,52.9,30.02,ESE,120,11.0,14.0,82,0.00,,---,0.00,VWS V14.01,2013-10-28 23:38:00,
2013-10-28 18:40:00,58.3,52.8,30.02,ESE,104,12.0,15.0,82,0.00,,---,0.00,VWS V14.01,2013-10-28 23:40:00,
2013-10-28 18:41:00,58.3,52.8,30.02,ESE,111,10.0,14.0,82,0.00,,---,0.00,VWS V14.01,2013-10-28 23:41:00,
2013-10-28 18:42:00,58.3,52.8,30.02,East,99,9.0,14.0,82,0.00,,---,0.00,VWS V14.01,2013-10-28 23:42:00,
2013-10-28 18:43:00,58.3,52.8,30.02,SE,136,10.0,15.0,82,0.00,,---,0.00,VWS V14.01,2013-10-28 23:43:00,
2013-10-28 18:45:00,58.3,52.8,30.02,East,89,9.0,15.0,82,0.00,,---,0.00,VWS V14.01,2013-10-28 23:45:00,
2013-10-28 18:46:00,58.3,52.8,30.02,ESE,105,10.0,15.0,82,0.00,,---,0.00,VWS V14.01,2013-10-28 23:46:00,
2013-10-28 18:47:00,58.3,52.8,30.02,ESE,105,13.0,15.0,82,0.00,,---,0.00,VWS V14.01,2013-10-28 23:47:00,
2013-10-28 18:48:00,58.3,52.8,30.02,ESE,109,16.0,17.0,82,0.00,,---,0.00,VWS V14.01,2013-10-28 23:48:00,
2013-10-28 18:50:00,58.3,52.8,30.02,ESE,102,14.0,17.0,82,0.00,,---,0.00,VWS V14.01,2013-10-28 23:50:00,
2013-10-28 18:51:00,58.3,52.8,30.02,ESE,103,16.0,16.0,82,0.00,,---,0.00,VWS V14.01,2013-10-28 23:51:00,
2013-10-28 18:52:00,58.3,52.8,30.02,SE,137,14.0,16.0,82,0.00,,---,0.00,VWS V14.01,2013-10-28 23:52:00,
2013-10-28 18:53:00,58.1,52.6,30.02,ENE,76,16.0,16.0,82,0.00,,---,0.00,VWS V14.01,2013-10-28 23:53:00,
2013-10-28 18:55:00,58.1,52.6,30.02,East,89,12.0,16.0,82,0.00,,---,0.00,VWS V14.01,2013-10-28 23:55:00,
2013-10-28 18:56:00,58.1,52.6,30.02,East,97,13.0,16.0,82,0.00,,---,0.00,VWS V14.01,2013-10-28 23:56:00,
2013-10-28 18:57:00,58.1,52.6,30.02,ESE,103,12.0,16.0,82,0.00,,---,0.00,VWS V14.01,2013-10-28 23:57:00,
2013-10-28 18:59:00,58.0,52.5,30.02,East,98,10.0,16.0,82,0.00,,---,0.00,VWS V14.01,2013-10-28 23:59:00,
2013-10-28 19:01:00,58.0,52.5,30.01,East,90,16.0,16.0,82,0.00,,---,0.00,VWS V14.01,2013-10-29 00:01:00,
2013-10-28 19:02:00,58.0,52.5,30.01,ESE,104,12.0,16.0,82,0.00,,---,0.00,VWS V14.01,2013-10-29 00:02:00,
2013-10-28 19:03:00,58.0,52.5,30.01,SE,128,12.0,16.0,82,0.00,,---,0.00,VWS V14.01,2013-10-29 00:03:00,
2013-10-28 19:04:00,57.8,52.3,30.01,ESE,112,12.0,18.0,82,0.00,,---,0.00,VWS V14.01,2013-10-29 00:04:00,
2013-10-28 19:06:00,57.8,52.3,30.01,ESE,103,14.0,18.0,82,0.00,,---,0.00,VWS V14.01,2013-10-29 00:06:00,
2013-10-28 19:08:00,57.8,52.3,30.01,East,86,13.0,19.0,82,0.00,,---,0.00,VWS V14.01,2013-10-29 00:08:00,
2013-10-28 19:09:00,57.8,52.3,30.01,ESE,109,10.0,19.0,82,0.00,,---,0.00,VWS V14.01,2013-10-29 00:09:00,
2013-10-28 19:11:00,57.8,52.3,30.01,East,99,15.0,15.0,82,0.00,,---,0.00,VWS V14.01,2013-10-29 00:11:00,
2013-10-28 19:12:00,57.8,52.3,30.01,ESE,102,12.0,15.0,82,0.00,,---,0.00,VWS V14.01,2013-10-29 00:12:00,
2013-10-28 19:13:00,57.6,52.2,30.01,ESE,122,15.0,18.0,82,0.00,,---,0.00,VWS V14.01,2013-10-29 00:13:00,
2013-10-28 19:14:00,57.6,52.2,30.01,ESE,107,16.0,18.0,82,0.00,,---,0.00,VWS V14.01,2013-10-29 00:14:00,
2013-10-28 19:16:00,57.6,52.2,30.02,SE,128,14.0,18.0,82,0.00,,---,0.00,VWS V14.01,2013-10-29 00:16:00,
2013-10-28 19:18:00,57.6,52.2,30.02,ESE,103,11.0,18.0,82,0.00,,---,0.00,VWS V14.01,2013-10-29 00:18:00,
2013-10-28 19:19:00,57.6,52.2,30.02,ESE,118,11.0,18.0,82,0.00,,---,0.00,VWS V14.01,2013-10-29 00:19:00,
2013-10-28 19:21:00,57.6,52.2,30.02,East,100,13.0,14.0,82,0.00,,---,0.00,VWS V14.01,2013-10-29 00:21:00,
2013-10-28 19:22:00,57.6,52.2,30.02,ESE,109,9.0,14.0,82,0.00,,---,0.00,VWS V14.01,2013-10-29 00:22:00,
2013-10-28 19:23:00,57.6,52.2,30.02,East,99,11.0,14.0,82,0.00,,---,0.00,VWS V14.01,2013-10-29 00:23:00,
2013-10-28 19:24:00,57.6,52.2,30.02,ESE,111,14.0,14.0,82,0.00,,---,0.00,VWS V14.01,2013-10-29 00:24:00,
2013-10-28 19:26:00,57.6,52.2,30.02,East,88,7.0,15.0,82,0.00,,---,0.00,VWS V14.01,2013-10-29 00:26:00,
2013-10-28 19:27:00,57.6,52.2,30.02,East,86,11.0,15.0,82,0.00,,---,0.00,VWS V14.01,2013-10-29 00:27:00,
2013-10-28 19:28:00,57.6,52.2,30.02,East,99,9.0,15.0,82,0.00,,---,0.00,VWS V14.01,2013-10-29 00:28:00,
2013-10-28 19:29:00,57.6,52.2,30.02,East,100,7.0,15.0,82,0.00,,---,0.00,VWS V14.01,2013-10-29 00:29:00,
2013-10-28 19:31:00,57.6,52.2,30.03,ENE,76,7.0,15.0,82,0.00,,---,0.00,VWS V14.01,2013-10-29 00:31:00,
2013-10-28 19:32:00,57.6,52.2,30.03,ENE,74,14.0,15.0,82,0.00,,---,0.00,VWS V14.01,2013-10-29 00:32:00,
2013-10-28 19:33:00,57.6,52.2,30.03,East,82,14.0,18.0,82,0.00,,---,0.00,VWS V14.01,2013-10-29 00:33:00,
2013-10-28 19:34:00,57.6,52.2,30.03,East,91,9.0,18.0,82,0.00,,---,0.00,VWS V14.01,2013-10-29 00:34:00,
2013-10-28 19:35:00,57.6,52.2,30.03,ESE,104,10.0,18.0,82,0.00,,---,0.00,VWS V14.01,2013-10-29 00:35:00,
2013-10-28 19:36:00,57.6,52.2,30.03,East,96,12.0,18.0,82,0.00,,---,0.00,VWS V14.01,2013-10-29 00:36:00,
2013-10-28 19:37:00,57.6,52.2,30.03,East,101,9.0,18.0,82,0.00,,---,0.00,VWS V14.01,2013-10-29 00:37:00,
2013-10-28 19:38:00,57.6,52.2,30.03,East,93,12.0,18.0,82,0.00,,---,0.00,VWS V14.01,2013-10-29 00:38:00,
2013-10-28 19:39:00,57.6,52.2,30.03,East,96,12.0,18.0,82,0.00,,---,0.00,VWS V14.01,2013-10-29 00:39:00,
2013-10-28 19:40:00,57.6,52.2,30.03,East,98,13.0,18.0,82,0.00,,---,0.00,VWS V14.01,2013-10-29 00:40:00,
2013-10-28 19:41:00,57.6,52.2,30.03,ESE,111,15.0,15.0,82,0.00,,---,0.00,VWS V14.01,2013-10-29 00:41:00,
2013-10-28 19:42:00,57.6,52.2,30.03,ESE,109,11.0,16.0,82,0.00,,---,0.00,VWS V14.01,2013-10-29 00:42:00,
2013-10-28 19:43:00,57.6,52.2,30.03,ESE,111,13.0,16.0,82,0.00,,---,0.00,VWS V14.01,2013-10-29 00:43:00,
2013-10-28 19:44:00,57.6,52.2,30.03,SE,126,9.0,16.0,82,0.00,,---,0.00,VWS V14.01,2013-10-29 00:44:00,
2013-10-28 19:45:00,57.6,52.2,30.03,SE,126,14.0,16.0,82,0.00,,---,0.00,VWS V14.01,2013-10-29 00:45:00,
2013-10-28 19:46:00,57.6,52.2,30.03,ESE,107,14.0,16.0,82,0.00,,---,0.00,VWS V14.01,2013-10-29 00:46:00,
2013-10-28 19:47:00,57.6,52.2,30.03,SE,124,10.0,16.0,82,0.00,,---,0.00,VWS V14.01,2013-10-29 00:47:00,
2013-10-28 19:48:00,57.6,52.2,30.03,East,97,14.0,16.0,82,0.00,,---,0.00,VWS V14.01,2013-10-29 00:48:00,
2013-10-28 19:49:00,57.6,52.2,30.03,SE,133,13.0,16.0,82,0.00,,---,0.00,VWS V14.01,2013-10-29 00:49:00,
2013-10-28 19:50:00,57.6,52.2,30.03,ESE,108,13.0,16.0,82,0.00,,---,0.00,VWS V14.01,2013-10-29 00:50:00,
2013-10-28 19:51:00,57.6,52.2,30.03,ESE,106,12.0,13.0,82,0.00,,---,0.00,VWS V14.01,2013-10-29 00:51:00,
2013-10-28 19:52:00,57.6,52.2,30.03,ESE,111,6.0,13.0,82,0.00,,---,0.00,VWS V14.01,2013-10-29 00:52:00,
2013-10-28 19:53:00,57.6,52.2,30.03,ESE,105,13.0,15.0,82,0.00,,---,0.00,VWS V14.01,2013-10-29 00:53:00,
2013-10-28 19:54:00,57.6,52.2,30.03,ESE,113,12.0,15.0,82,0.00,,---,0.00,VWS V14.01,2013-10-29 00:54:00,
2013-10-28 19:55:00,57.6,52.2,30.03,ESE,112,14.0,15.0,82,0.00,,---,0.00,VWS V14.01,2013-10-29 00:55:00,
2013-10-28 19:56:00,57.5,52.1,30.03,East,91,9.0,15.0,82,0.00,,---,0.00,VWS V14.01,2013-10-29 00:56:00,
2013-10-28 19:57:00,57.5,52.1,30.03,ESE,107,9.0,15.0,82,0.00,,---,0.00,VWS V14.01,2013-10-29 00:57:00,
2013-10-28 19:58:00,57.5,52.1,30.03,ESE,106,11.0,16.0,82,0.00,,---,0.00,VWS V14.01,2013-10-29 00:58:00,
2013-10-28 19:59:00,57.5,52.1,30.03,ESE,102,14.0,16.0,82,0.00,,---,0.00,VWS V14.01,2013-10-29 00:59:00,
2013-10-28 20:00:00,57.5,52.1,30.04,ESE,120,9.0,16.0,82,0.00,,---,0.00,VWS V14.01,2013-10-29 01:00:00,
2013-10-28 20:01:00,57.6,52.2,30.04,ESE,119,13.0,13.0,82,0.00,,---,0.00,VWS V14.01,2013-10-29 01:01:00,
2013-10-28 20:02:00,57.6,52.2,30.04,SE,129,10.0,15.0,82,0.00,,---,0.00,VWS V14.01,2013-10-29 01:02:00,
2013-10-28 20:03:00,57.6,52.2,30.04,ESE,123,12.0,15.0,82,0.00,,---,0.00,VWS V14.01,2013-10-29 01:03:00,
2013-10-28 20:04:00,57.6,52.2,30.04,ESE,113,5.0,15.0,82,0.00,,---,0.00,VWS V14.01,2013-10-29 01:04:00,
2013-10-28 20:05:00,57.5,52.1,30.04,ESE,108,11.0,15.0,82,0.00,,---,0.00,VWS V14.01,2013-10-29 01:05:00,
2013-10-28 20:06:00,57.5,52.1,30.04,SE,124,10.0,15.0,82,0.00,,---,0.00,VWS V14.01,2013-10-29 01:06:00,
2013-10-28 20:07:00,57.5,52.1,30.04,ESE,112,9.0,15.0,82,0.00,,---,0.00,VWS V14.01,2013-10-29 01:07:00,
2013-10-28 20:09:00,57.5,52.4,30.04,ESE,121,10.0,15.0,83,0.00,,---,0.00,VWS V14.01,2013-10-29 01:09:00,
2013-10-28 20:10:00,57.5,52.4,30.04,SE,128,10.0,15.0,83,0.00,,---,0.00,VWS V14.01,2013-10-29 01:10:00,
2013-10-28 20:12:00,57.5,52.4,30.04,SE,134,10.0,12.0,83,0.00,,---,0.00,VWS V14.01,2013-10-29 01:12:00,
2013-10-28 20:14:00,57.5,52.4,30.04,ESE,112,6.0,13.0,83,0.00,,---,0.00,VWS V14.01,2013-10-29 01:14:00,
2013-10-28 20:15:00,57.5,52.4,30.03,ESE,117,6.0,13.0,83,0.00,,---,0.00,VWS V14.01,2013-10-29 01:15:00,
2013-10-28 20:17:00,57.5,52.4,30.03,ESE,115,5.0,13.0,83,0.00,,---,0.00,VWS V14.01,2013-10-29 01:17:00,
2013-10-28 20:19:00,57.5,52.4,30.03,East,101,6.0,13.0,83,0.00,,---,0.00,VWS V14.01,2013-10-29 01:19:00,
2013-10-28 20:20:00,57.5,52.4,30.03,ESE,104,9.0,13.0,83,0.00,,---,0.00,VWS V14.01,2013-10-29 01:20:00,
2013-10-28 20:22:00,57.5,52.4,30.03,ESE,115,7.0,11.0,83,0.00,,---,0.00,VWS V14.01,2013-10-29 01:22:00,
2013-10-28 20:24:00,57.5,52.4,30.03,East,100,6.0,11.0,83,0.00,,---,0.00,VWS V14.01,2013-10-29 01:24:00,
2013-10-28 20:25:00,57.5,52.4,30.03,ESE,110,10.0,11.0,83,0.00,,---,0.00,VWS V14.01,2013-10-29 01:25:00,
2013-10-28 20:27:00,57.5,52.4,30.03,ESE,123,5.0,11.0,83,0.00,,---,0.00,VWS V14.01,2013-10-29 01:27:00,
2013-10-28 20:29:00,57.3,52.2,30.03,ESE,119,7.0,11.0,83,0.00,,---,0.00,VWS V14.01,2013-10-29 01:29:00,
2013-10-28 20:30:00,57.3,52.2,30.04,East,101,9.0,12.0,83,0.00,,---,0.00,VWS V14.01,2013-10-29 01:30:00,
2013-10-28 20:32:00,57.3,52.2,30.04,East,94,6.0,9.0,83,0.00,,---,0.00,VWS V14.01,2013-10-29 01:32:00,
2013-10-28 20:34:00,57.3,52.2,30.04,East,101,7.0,9.0,83,0.00,,---,0.00,VWS V14.01,2013-10-29 01:34:00,
2013-10-28 20:35:00,57.3,52.2,30.04,ESE,120,8.0,10.0,83,0.00,,---,0.00,VWS V14.01,2013-10-29 01:35:00,
2013-10-28 20:36:00,57.3,52.2,30.04,East,87,7.0,10.0,83,0.00,,---,0.00,VWS V14.01,2013-10-29 01:36:00,
2013-10-28 20:37:00,57.3,52.2,30.04,East,98,6.0,10.0,83,0.00,,---,0.00,VWS V14.01,2013-10-29 01:37:00,
2013-10-28 20:39:00,57.3,52.2,30.04,ESE,117,6.0,10.0,83,0.00,,---,0.00,VWS V14.01,2013-10-29 01:39:00,
2013-10-28 20:40:00,57.3,52.2,30.04,ESE,102,4.0,10.0,83,0.00,,---,0.00,VWS V14.01,2013-10-29 01:40:00,
2013-10-28 20:41:00,57.3,52.5,30.04,ESE,114,5.0,5.0,84,0.00,,---,0.00,VWS V14.01,2013-10-29 01:41:00,
2013-10-28 20:42:00,57.2,52.1,30.04,East,101,5.0,7.0,83,0.00,,---,0.00,VWS V14.01,2013-10-29 01:42:00,
2013-10-28 20:44:00,57.2,52.4,30.04,East,97,8.0,10.0,84,0.00,,---,0.00,VWS V14.01,2013-10-29 01:44:00,
2013-10-28 20:45:00,57.2,52.4,30.04,East,101,7.0,10.0,84,0.00,,---,0.00,VWS V14.01,2013-10-29 01:45:00,
2013-10-28 20:46:00,57.2,52.4,30.04,ESE,105,8.0,10.0,84,0.00,,---,0.00,VWS V14.01,2013-10-29 01:46:00,
2013-10-28 20:47:00,57.2,52.4,30.04,SE,125,7.0,10.0,84,0.00,,---,0.00,VWS V14.01,2013-10-29 01:47:00,
2013-10-28 20:49:00,57.2,52.4,30.04,East,100,5.0,10.0,84,0.00,,---,0.00,VWS V14.01,2013-10-29 01:49:00,
2013-10-28 20:50:00,57.2,52.4,30.04,East,90,6.0,10.0,84,0.00,,---,0.00,VWS V14.01,2013-10-29 01:50:00,
2013-10-28 20:51:00,57.2,52.4,30.04,East,97,7.0,8.0,84,0.00,,---,0.00,VWS V14.01,2013-10-29 01:51:00,
2013-10-28 20:52:00,57.2,52.4,30.04,ESE,112,4.0,8.0,84,0.00,,---,0.00,VWS V14.01,2013-10-29 01:52:00,
2013-10-28 20:53:00,57.2,52.4,30.04,East,96,5.0,8.0,84,0.00,,---,0.00,VWS V14.01,2013-10-29 01:53:00,
2013-10-28 20:54:00,57.2,52.4,30.04,ESE,104,6.0,8.0,84,0.00,,---,0.00,VWS V14.01,2013-10-29 01:54:00,
2013-10-28 20:56:00,57.0,52.2,30.04,ESE,111,9.0,9.0,84,0.00,,---,0.00,VWS V14.01,2013-10-29 01:56:00,
2013-10-28 20:57:00,57.0,52.2,30.04,East,94,9.0,10.0,84,0.00,,---,0.00,VWS V14.01,2013-10-29 01:57:00,
2013-10-28 20:58:00,57.0,52.2,30.04,ESE,103,6.0,10.0,84,0.00,,---,0.00,VWS V14.01,2013-10-29 01:58:00,
2013-10-28 20:59:00,57.0,52.2,30.04,ESE,102,5.0,11.0,84,0.00,,---,0.00,VWS V14.01,2013-10-29 01:59:00,
2013-10-28 21:01:00,57.0,52.2,30.04,ESE,103,7.0,8.0,84,0.00,,---,0.00,VWS V14.01,2013-10-29 02:01:00,
2013-10-28 21:02:00,57.0,52.2,30.04,East,100,8.0,9.0,84,0.00,,---,0.00,VWS V14.01,2013-10-29 02:02:00,
2013-10-28 21:03:00,57.0,52.2,30.04,East,101,8.0,9.0,84,0.00,,---,0.00,VWS V14.01,2013-10-29 02:03:00,
2013-10-28 21:05:00,57.0,52.2,30.04,East,100,10.0,13.0,84,0.00,,---,0.00,VWS V14.01,2013-10-29 02:05:00,
2013-10-28 21:06:00,57.0,52.2,30.04,East,92,8.0,13.0,84,0.00,,---,0.00,VWS V14.01,2013-10-29 02:06:00,
2013-10-28 21:07:00,57.0,52.2,30.04,East,92,7.0,13.0,84,0.00,,---,0.00,VWS V14.01,2013-10-29 02:07:00,
2013-10-28 21:08:00,57.0,52.2,30.04,ESE,104,13.0,13.0,84,0.00,,---,0.00,VWS V14.01,2013-10-29 02:08:00,
2013-10-28 21:10:00,57.0,52.2,30.04,East,92,8.0,13.0,84,0.00,,---,0.00,VWS V14.01,2013-10-29 02:10:00,
2013-10-28 21:11:00,57.0,52.2,30.04,ESE,105,7.0,7.0,84,0.00,,---,0.00,VWS V14.01,2013-10-29 02:11:00,
2013-10-28 21:12:00,57.0,52.2,30.04,East,96,7.0,10.0,84,0.00,,---,0.00,VWS V14.01,2013-10-29 02:12:00,
2013-10-28 21:13:00,57.0,52.2,30.04,East,101,6.0,10.0,84,0.00,,---,0.00,VWS V14.01,2013-10-29 02:13:00,
2013-10-28 21:16:00,57.0,52.2,30.03,East,101,7.0,10.0,84,0.00,,---,0.00,VWS V14.01,2013-10-29 02:16:00,
2013-10-28 21:17:00,57.0,52.2,30.03,East,87,10.0,11.0,84,0.00,,---,0.00,VWS V14.01,2013-10-29 02:17:00,
2013-10-28 21:18:00,57.0,52.2,30.03,East,97,11.0,11.0,84,0.00,,---,0.00,VWS V14.01,2013-10-29 02:18:00,
2013-10-28 21:21:00,57.2,52.4,30.03,East,100,10.0,10.0,84,0.00,,---,0.00,VWS V14.01,2013-10-29 02:21:00,
2013-10-28 21:22:00,57.2,52.4,30.03,East,88,5.0,10.0,84,0.00,,---,0.00,VWS V14.01,2013-10-29 02:22:00,
2013-10-28 21:23:00,57.2,52.4,30.03,East,86,7.0,11.0,84,0.00,,---,0.00,VWS V14.01,2013-10-29 02:23:00,
2013-10-28 21:26:00,57.2,52.4,30.03,East,90,6.0,11.0,84,0.00,,---,0.00,VWS V14.01,2013-10-29 02:26:00,
2013-10-28 21:27:00,57.2,52.4,30.03,ESE,105,9.0,11.0,84,0.00,,---,0.00,VWS V14.01,2013-10-29 02:27:00,
2013-10-28 21:28:00,57.2,52.4,30.03,ESE,108,7.0,11.0,84,0.00,,---,0.00,VWS V14.01,2013-10-29 02:28:00,
2013-10-28 21:31:00,57.3,52.5,30.03,ESE,109,11.0,12.0,84,0.00,,---,0.00,VWS V14.01,2013-10-29 02:31:00,
2013-10-28 21:32:00,57.3,52.5,30.03,ESE,114,10.0,12.0,84,0.00,,---,0.00,VWS V14.01,2013-10-29 02:32:00,
2013-10-28 21:33:00,57.3,52.5,30.03,SE,124,11.0,12.0,84,0.00,,---,0.00,VWS V14.01,2013-10-29 02:33:00,
2013-10-28 21:36:00,57.3,52.5,30.03,ESE,118,7.0,12.0,84,0.00,,---,0.00,VWS V14.01,2013-10-29 02:36:00,
2013-10-28 21:37:00,57.3,52.5,30.03,SE,126,6.0,12.0,84,0.00,,---,0.00,VWS V14.01,2013-10-29 02:37:00,
2013-10-28 21:38:00,57.5,52.7,30.03,ESE,118,4.0,12.0,84,0.00,,---,0.00,VWS V14.01,2013-10-29 02:38:00,
2013-10-28 21:41:00,57.5,52.7,30.03,SE,132,5.0,6.0,84,0.00,,---,0.00,VWS V14.01,2013-10-29 02:41:00,
2013-10-28 21:42:00,57.5,52.7,30.03,SE,144,10.0,10.0,84,0.00,,---,0.00,VWS V14.01,2013-10-29 02:42:00,
2013-10-28 21:43:00,57.5,52.7,30.03,ESE,114,7.0,11.0,84,0.00,,---,0.00,VWS V14.01,2013-10-29 02:43:00,
2013-10-28 21:46:00,57.8,53.0,30.03,ESE,119,8.0,12.0,84,0.00,,---,0.00,VWS V14.01,2013-10-29 02:46:00,
2013-10-28 21:47:00,57.8,53.0,30.03,SE,139,12.0,13.0,84,0.00,,---,0.00,VWS V14.01,2013-10-29 02:47:00,
2013-10-28 21:48:00,57.8,53.0,30.03,SE,128,11.0,13.0,84,0.00,,---,0.00,VWS V14.01,2013-10-29 02:48:00,
2013-10-28 21:51:00,58.0,52.9,30.03,ESE,111,8.0,11.0,83,0.00,,---,0.00,VWS V14.01,2013-10-29 02:51:00,
2013-10-28 21:52:00,58.0,52.9,30.03,SE,130,9.0,11.0,83,0.00,,---,0.00,VWS V14.01,2013-10-29 02:52:00,
2013-10-28 21:53:00,58.1,53.0,30.03,SE,140,11.0,13.0,83,0.00,,---,0.00,VWS V14.01,2013-10-29 02:53:00,
2013-10-28 21:56:00,58.1,53.0,30.03,SE,131,10.0,14.0,83,0.00,,---,0.00,VWS V14.01,2013-10-29 02:56:00,
2013-10-28 21:57:00,58.1,53.0,30.03,SE,126,10.0,14.0,83,0.00,,---,0.00,VWS V14.01,2013-10-29 02:57:00,
2013-10-28 21:58:00,58.1,53.0,30.03,SE,131,14.0,14.0,83,0.00,,---,0.00,VWS V14.01,2013-10-29 02:58:00,
2013-10-28 22:02:00,58.3,52.8,30.02,SE,138,9.0,15.0,82,0.00,,---,0.00,VWS V14.01,2013-10-29 03:02:00,
2013-10-28 22:03:00,58.3,52.8,30.02,SE,138,14.0,17.0,82,0.00,,---,0.00,VWS V14.01,2013-10-29 03:03:00,
2013-10-28 22:07:00,58.3,52.8,30.02,ESE,122,13.0,20.0,82,0.00,,---,0.00,VWS V14.01,2013-10-29 03:07:00,
2013-10-28 22:08:00,58.3,52.8,30.02,ESE,123,10.0,20.0,82,0.00,,---,0.00,VWS V14.01,2013-10-29 03:08:00,
2013-10-28 22:12:00,58.4,52.9,30.02,SE,144,15.0,20.0,82,0.00,,---,0.00,VWS V14.01,2013-10-29 03:12:00,
2013-10-28 22:13:00,58.4,52.9,30.02,SE,127,14.0,20.0,82,0.00,,---,0.00,VWS V14.01,2013-10-29 03:13:00,
2013-10-28 22:18:00,58.4,52.9,30.02,SE,145,13.0,22.0,82,0.00,,---,0.00,VWS V14.01,2013-10-29 03:18:00,
2013-10-28 22:23:00,58.3,53.2,30.02,ESE,123,18.0,24.0,83,0.00,,---,0.00,VWS V14.01,2013-10-29 03:23:00,
2013-10-28 22:24:00,58.3,52.8,30.02,ESE,121,16.0,24.0,82,0.00,,---,0.00,VWS V14.01,2013-10-29 03:24:00,
2013-10-28 22:28:00,58.3,52.8,30.02,SSE,159,13.0,24.0,82,0.00,,---,0.00,VWS V14.01,2013-10-29 03:28:00,
2013-10-28 22:29:00,58.3,52.8,30.02,ESE,116,12.0,24.0,82,0.00,,---,0.00,VWS V14.01,2013-10-29 03:29:00,
2013-10-28 22:33:00,58.3,53.2,30.01,SE,137,15.0,18.0,83,0.00,,---,0.00,VWS V14.01,2013-10-29 03:33:00,
2013-10-28 22:34:00,58.3,53.2,30.01,SE,131,13.0,18.0,83,0.00,,---,0.00,VWS V14.01,2013-10-29 03:34:00,
2013-10-28 22:38:00,58.3,53.2,30.01,SE,127,12.0,18.0,83,0.00,,---,0.00,VWS V14.01,2013-10-29 03:38:00,
2013-10-28 22:39:00,58.3,53.2,30.01,ESE,123,11.0,18.0,83,0.00,,---,0.00,VWS V14.01,2013-10-29 03:39:00,
2013-10-28 22:43:00,58.1,53.0,30.01,SE,138,12.0,17.0,83,0.00,,---,0.00,VWS V14.01,2013-10-29 03:43:00,
2013-10-28 22:44:00,58.1,53.0,30.01,SE,136,17.0,17.0,83,0.00,,---,0.00,VWS V14.01,2013-10-29 03:44:00,
2013-10-28 22:48:00,58.3,52.8,30.01,SE,133,11.0,22.0,82,0.00,,---,0.00,VWS V14.01,2013-10-29 03:48:00,
2013-10-28 22:49:00,58.3,52.8,30.01,SE,134,17.0,22.0,82,0.00,,---,0.00,VWS V14.01,2013-10-29 03:49:00,
2013-10-28 22:53:00,58.3,52.8,30.01,ESE,119,9.0,16.0,82,0.00,,---,0.00,VWS V14.01,2013-10-29 03:53:00,
2013-10-28 22:54:00,58.3,52.8,30.01,SE,132,18.0,19.0,82,0.00,,---,0.00,VWS V14.01,2013-10-29 03:54:00,
2013-10-28 22:58:00,58.3,52.8,30.01,SE,136,15.0,20.0,82,0.00,,---,0.00,VWS V14.01,2013-10-29 03:58:00,
2013-10-28 22:59:00,58.3,52.8,30.01,SE,139,14.0,20.0,82,0.00,,---,0.00,VWS V14.01,2013-10-29 03:59:00,
2013-10-28 23:01:00,58.3,52.8,30.01,ESE,121,12.0,20.0,82,0.00,,---,0.00,VWS V14.01,2013-10-29 04:01:00,
2013-10-28 23:06:00,58.3,52.8,30.01,SE,127,8.0,22.0,82,0.00,,---,0.00,VWS V14.01,2013-10-29 04:06:00,
2013-10-28 23:11:00,58.1,52.6,30.01,ESE,121,11.0,12.0,82,0.00,,---,0.00,VWS V14.01,2013-10-29 04:11:00,
2013-10-28 23:16:00,58.1,52.6,29.99,ESE,115,10.0,18.0,82,0.00,,---,0.00,VWS V14.01,2013-10-29 04:16:00,
2013-10-28 23:21:00,58.0,52.5,29.99,ESE,110,9.0,9.0,82,0.00,,---,0.00,VWS V14.01,2013-10-29 04:21:00,
2013-10-28 23:22:00,58.0,52.5,29.99,SE,128,8.0,12.0,82,0.00,,---,0.00,VWS V14.01,2013-10-29 04:22:00,
2013-10-28 23:26:00,58.0,52.5,29.99,ESE,121,14.0,15.0,82,0.00,,---,0.00,VWS V14.01,2013-10-29 04:26:00,
2013-10-28 23:27:00,58.0,52.5,29.99,SE,124,10.0,15.0,82,0.00,,---,0.00,VWS V14.01,2013-10-29 04:27:00,
2013-10-28 23:31:00,58.0,52.5,29.99,ESE,121,12.0,12.0,82,0.00,,---,0.00,VWS V14.01,2013-10-29 04:31:00,
2013-10-28 23:32:00,58.0,52.5,29.99,SE,137,7.0,13.0,82,0.00,,---,0.00,VWS V14.01,2013-10-29 04:32:00,
2013-10-28 23:36:00,58.1,52.6,29.99,East,94,9.0,18.0,82,0.00,,---,0.00,VWS V14.01,2013-10-29 04:36:00,
2013-10-28 23:37:00,58.1,52.6,29.99,East,100,11.0,18.0,82,0.00,,---,0.00,VWS V14.01,2013-10-29 04:37:00,
2013-10-28 23:41:00,58.1,52.6,29.99,SE,132,12.0,18.0,82,0.00,,---,0.00,VWS V14.01,2013-10-29 04:41:00,
2013-10-28 23:42:00,58.1,52.6,29.99,ESE,117,12.0,18.0,82,0.00,,---,0.00,VWS V14.01,2013-10-29 04:42:00,
2013-10-28 23:46:00,58.3,52.8,29.99,ESE,115,8.0,18.0,82,0.00,,---,0.00,VWS V14.01,2013-10-29 04:46:00,
2013-10-28 23:47:00,58.3,52.8,29.99,SE,128,7.0,18.0,82,0.00,,---,0.00,VWS V14.01,2013-10-29 04:47:00,
2013-10-28 23:51:00,58.3,52.5,29.99,ESE,114,7.0,11.0,81,0.00,,---,0.00,VWS V14.01,2013-10-29 04:51:00,
2013-10-28 23:52:00,58.3,52.5,29.99,SE,132,10.0,11.0,81,0.00,,---,0.00,VWS V14.01,2013-10-29 04:52:00,
2013-10-28 23:56:00,58.4,52.6,29.99,ESE,114,11.0,17.0,81,0.00,,---,0.00,VWS V14.01,2013-10-29 04:56:00,
2013-10-28 23:57:00,58.4,52.6,29.99,SE,130,11.0,17.0,81,0.00,,---,0.00,VWS V14.01,2013-10-29 04:57:00,